Observation data for JA Ranch on 03/01/2021      Previous  Date  Next       Current Mesonet Observations  Soil Data  Daily Summary Page  Observations in Plain Language
KPD3 010600Z 02008KT 05/M09 A3022 RMK A01 T00491085  RH  037%=      5-min Rain = 0
KPD3 010601Z 03008KT 05/M08 A3021 RMK A01 T00481084  RH  038%=      5-min Rain = 0
KPD3 010602Z 03006KT 05/M08 A3021 RMK A01 T00481084  RH  038%=      5-min Rain = 0
KPD3 010603Z 03007KT 05/M08 A3021 RMK A01 T00471084  RH  038%=      5-min Rain = 0
KPD3 010604Z 02006KT 05/M08 A3021 RMK A01 T00471084  RH  038%=      5-min Rain = 0
KPD3 010605Z 02006KT 05/M08 A3021 RMK A01 T00461084  RH  038%=      5-min Rain = 0
KPD3 010606Z 02007KT 05/M08 A3021 RMK A01 T00451084  RH  039%=      5-min Rain = 0
KPD3 010607Z 02008KT 05/M08 A3021 RMK A01 T00451084  RH  039%=      5-min Rain = 0
KPD3 010608Z 02009KT 04/M08 A3021 RMK A01 T00441084  RH  039%=      5-min Rain = 0
KPD3 010609Z 02010KT 04/M08 A3021 RMK A01 T00441083  RH  039%=      5-min Rain = 0
KPD3 010610Z 01009KT 04/M08 A3021 RMK A01 T00441084  RH  039%=      5-min Rain = 0
KPD3 010611Z 01010KT 04/M08 A3021 RMK A01 T00431084  RH  039%=      5-min Rain = 0
KPD3 010612Z 01010KT 04/M08 A3021 RMK A01 T00431083  RH  039%=      5-min Rain = 0
KPD3 010613Z 01010KT 04/M08 A3021 RMK A01 T00431083  RH  039%=      5-min Rain = 0
KPD3 010614Z 02009KT 04/M08 A302 RMK A01 T00431084  RH  039%=      5-min Rain = 0
KPD3 010615Z 02008KT 04/M08 A302 RMK A01 T00431084  RH  039%=      5-min Rain = 0
KPD3 010616Z 03009KT 04/M08 A302 RMK A01 T00431084  RH  039%=      5-min Rain = 0
KPD3 010617Z 03010KT 04/M08 A302 RMK A01 T00431083  RH  039%=      5-min Rain = 0
KPD3 010618Z 02009KT 04/M08 A302 RMK A01 T00421084  RH  039%=      5-min Rain = 0
KPD3 010619Z 02008KT 04/M08 A302 RMK A01 T00421083  RH  040%=      5-min Rain = 0
KPD3 010620Z 02008KT 04/M08 A302 RMK A01 T00411083  RH  040%=      5-min Rain = 0
KPD3 010621Z 02009KT 04/M08 A302 RMK A01 T00401083  RH  040%=      5-min Rain = 0
KPD3 010622Z 02009KT 04/M08 A302 RMK A01 T00411083  RH  040%=      5-min Rain = 0
KPD3 010623Z 02008KT 04/M08 A302 RMK A01 T00401083  RH  040%=      5-min Rain = 0
KPD3 010624Z 02009KT 04/M08 A302 RMK A01 T00401082  RH  041%=      5-min Rain = 0
KPD3 010625Z 02009KT 04/M08 A302 RMK A01 T00401082  RH  041%=      5-min Rain = 0
KPD3 010626Z 02010KT 04/M08 A302 RMK A01 T00401082  RH  041%=      5-min Rain = 0
KPD3 010627Z 02009KT 04/M08 A302 RMK A01 T00401082  RH  041%=      5-min Rain = 0
KPD3 010628Z 02010KT 04/M08 A302 RMK A01 T00401082  RH  041%=      5-min Rain = 0
KPD3 010629Z 02009KT 04/M08 A302 RMK A01 T00401082  RH  041%=      5-min Rain = 0
KPD3 010630Z 02009KT 04/M08 A302 RMK A01 T00401082  RH  041%=      5-min Rain = 0
KPD3 010631Z 02007KT 04/M08 A302 RMK A01 T00401082  RH  041%=      5-min Rain = 0
KPD3 010632Z 02008KT 04/M08 A3021 RMK A01 T00401081  RH  041%=      5-min Rain = 0
KPD3 010633Z 02009KT 04/M08 A3021 RMK A01 T00401082  RH  041%=      5-min Rain = 0
KPD3 010634Z 02008KT 04/M08 A3021 RMK A01 T00391082  RH  041%=      5-min Rain = 0
KPD3 010635Z 02010KT 04/M08 A3021 RMK A01 T00401081  RH  041%=      5-min Rain = 0
KPD3 010636Z 02010KT 04/M08 A3021 RMK A01 T00401081  RH  041%=      5-min Rain = 0
KPD3 010637Z 02009KT 04/M08 A3021 RMK A01 T00401081  RH  041%=      5-min Rain = 0
KPD3 010638Z 02010KT 04/M08 A3021 RMK A01 T00401081  RH  041%=      5-min Rain = 0
KPD3 010639Z 02009KT 04/M08 A3021 RMK A01 T00401082  RH  040%=      5-min Rain = 0
KPD3 010640Z 02009KT 04/M08 A3021 RMK A01 T00411082  RH  040%=      5-min Rain = 0
KPD3 010641Z 02010KT 04/M08 A3021 RMK A01 T00411081  RH  041%=      5-min Rain = 0
KPD3 010642Z 01009KT 04/M08 A3021 RMK A01 T00411081  RH  041%=      5-min Rain = 0
KPD3 010643Z 01009KT 04/M08 A3021 RMK A01 T00401082  RH  041%=      5-min Rain = 0
KPD3 010644Z 01009KT 04/M08 A3021 RMK A01 T00401082  RH  041%=      5-min Rain = 0
KPD3 010645Z 02008KT 04/M08 A3021 RMK A01 T00401082  RH  041%=      5-min Rain = 0
KPD3 010646Z 02008KT 04/M08 A3021 RMK A01 T00391081  RH  041%=      5-min Rain = 0
KPD3 010647Z 02008KT 04/M08 A3021 RMK A01 T00381082  RH  041%=      5-min Rain = 0
KPD3 010648Z 02008KT 04/M08 A3021 RMK A01 T00381081  RH  041%=      5-min Rain = 0
KPD3 010649Z 02008KT 04/M08 A3021 RMK A01 T00371080  RH  042%=      5-min Rain = 0
KPD3 010650Z 01008KT 04/M08 A3022 RMK A01 T00371081  RH  042%=      5-min Rain = 0
KPD3 010651Z 01009KT 04/M08 A3022 RMK A01 T00371081  RH  042%=      5-min Rain = 0
KPD3 010652Z 01008KT 04/M08 A3022 RMK A01 T00371081  RH  042%=      5-min Rain = 0
KPD3 010653Z 02009KT 04/M08 A3022 RMK A01 T00371081  RH  042%=      5-min Rain = 0
KPD3 010654Z 01008KT 04/M08 A3022 RMK A01 T00371081  RH  042%=      5-min Rain = 0
KPD3 010655Z 01007KT 04/M08 A3022 RMK A01 T00381081  RH  042%=      5-min Rain = 0
KPD3 010656Z 01007KT 04/M08 A3022 RMK A01 T00381081  RH  042%=      5-min Rain = 0
KPD3 010657Z 01008KT 04/M08 A3022 RMK A01 T00381081  RH  042%=      5-min Rain = 0
KPD3 010658Z 02007KT 04/M08 A3022 RMK A01 T00381080  RH  042%=      5-min Rain = 0
KPD3 010659Z 02007KT 04/M08 A3022 RMK A01 T00371080  RH  042%=      5-min Rain = 0
KPD3 010700Z 02007KT 04/M08 A3022 RMK A01 T00361080  RH  042%=      5-min Rain = 0
KPD3 010701Z 02007KT 04/M08 A3022 RMK A01 T00361080  RH  042%=      5-min Rain = 0
KPD3 010702Z 02007KT 04/M08 A3022 RMK A01 T00351080  RH  043%=      5-min Rain = 0
KPD3 010703Z 02007KT 03/M08 A3022 RMK A01 T00341080  RH  043%=      5-min Rain = 0
KPD3 010704Z 01008KT 03/M08 A3022 RMK A01 T00341080  RH  043%=      5-min Rain = 0
KPD3 010705Z 02008KT 03/M08 A3023 RMK A01 T00341080  RH  043%=      5-min Rain = 0
KPD3 010706Z 01007KT 03/M08 A3023 RMK A01 T00341080  RH  043%=      5-min Rain = 0
KPD3 010707Z 02007KT 03/M08 A3023 RMK A01 T00341079  RH  043%=      5-min Rain = 0
KPD3 010708Z 01007KT 03/M08 A3023 RMK A01 T00331079  RH  043%=      5-min Rain = 0
KPD3 010709Z 01006KT 03/M08 A3023 RMK A01 T00331079  RH  044%=      5-min Rain = 0
KPD3 010710Z 02006KT 03/M08 A3023 RMK A01 T00321079  RH  044%=      5-min Rain = 0
KPD3 010711Z 02006KT 03/M08 A3023 RMK A01 T00311079  RH  044%=      5-min Rain = 0
KPD3 010712Z 02006KT 03/M08 A3023 RMK A01 T00311079  RH  044%=      5-min Rain = 0
KPD3 010713Z 02007KT 03/M08 A3023 RMK A01 T00311079  RH  044%=      5-min Rain = 0
KPD3 010714Z 03007KT 03/M08 A3023 RMK A01 T00311079  RH  044%=      5-min Rain = 0
KPD3 010715Z 03006KT 03/M08 A3023 RMK A01 T00311079  RH  044%=      5-min Rain = 0
KPD3 010716Z 02007KT 03/M08 A3023 RMK A01 T00311078  RH  044%=      5-min Rain = 0
KPD3 010717Z 02007KT 03/M08 A3023 RMK A01 T00311078  RH  044%=      5-min Rain = 0
KPD3 010718Z 02006KT 03/M08 A3023 RMK A01 T00311078  RH  045%=      5-min Rain = 0
KPD3 010719Z 02007KT 03/M08 A3023 RMK A01 T00311078  RH  045%=      5-min Rain = 0
KPD3 010720Z 02008KT 03/M08 A3023 RMK A01 T00301078  RH  045%=      5-min Rain = 0
KPD3 010721Z 03009KT 03/M08 A3023 RMK A01 T00311078  RH  045%=      5-min Rain = 0
KPD3 010722Z 03009KT 03/M08 A3023 RMK A01 T00311078  RH  045%=      5-min Rain = 0
KPD3 010723Z 03008KT 03/M08 A3023 RMK A01 T00321077  RH  045%=      5-min Rain = 0
KPD3 010724Z 03008KT 03/M08 A3023 RMK A01 T00321077  RH  045%=      5-min Rain = 0
KPD3 010725Z 03008KT 03/M08 A3023 RMK A01 T00321077  RH  045%=      5-min Rain = 0
KPD3 010726Z 03007KT 03/M08 A3023 RMK A01 T00321077  RH  045%=      5-min Rain = 0
KPD3 010727Z 03007KT 03/M08 A3023 RMK A01 T00321076  RH  045%=      5-min Rain = 0
KPD3 010728Z 03008KT 03/M08 A3023 RMK A01 T00321077  RH  045%=      5-min Rain = 0
KPD3 010729Z 04008KT 03/M08 A3023 RMK A01 T00331076  RH  045%=      5-min Rain = 0
KPD3 010730Z 04008KT 03/M08 A3023 RMK A01 T00321077  RH  045%=      5-min Rain = 0
KPD3 010731Z 04009KT 03/M08 A3023 RMK A01 T00321077  RH  045%=      5-min Rain = 0
KPD3 010732Z 04008KT 03/M08 A3023 RMK A01 T00331077  RH  044%=      5-min Rain = 0
KPD3 010733Z 04008KT 03/M08 A3023 RMK A01 T00331076  RH  045%=      5-min Rain = 0
KPD3 010734Z 04007KT 03/M08 A3023 RMK A01 T00331076  RH  045%=      5-min Rain = 0
KPD3 010735Z 04008KT 03/M08 A3023 RMK A01 T00331076  RH  045%=      5-min Rain = 0
KPD3 010736Z 04008KT 03/M08 A3024 RMK A01 T00331076  RH  045%=      5-min Rain = 0
KPD3 010737Z 03008KT 03/M08 A3024 RMK A01 T00331075  RH  045%=      5-min Rain = 0
KPD3 010738Z 03007KT 03/M08 A3024 RMK A01 T00331075  RH  045%=      5-min Rain = 0
KPD3 010739Z 03007KT 03/M08 A3024 RMK A01 T00331075  RH  045%=      5-min Rain = 0
KPD3 010740Z 02008KT 03/M08 A3024 RMK A01 T00331075  RH  045%=      5-min Rain = 0
KPD3 010741Z 02007KT 03/M08 A3024 RMK A01 T00331075  RH  045%=      5-min Rain = 0
KPD3 010742Z 02007KT 03/M08 A3024 RMK A01 T00331075  RH  045%=      5-min Rain = 0
KPD3 010743Z 02008KT 03/M08 A3025 RMK A01 T00331075  RH  045%=      5-min Rain = 0
KPD3 010744Z 02007KT 03/M08 A3025 RMK A01 T00331075  RH  045%=      5-min Rain = 0
KPD3 010745Z 02006KT 03/M08 A3025 RMK A01 T00331075  RH  045%=      5-min Rain = 0
KPD3 010746Z 03006KT 03/M08 A3025 RMK A01 T00331075  RH  045%=      5-min Rain = 0
KPD3 010747Z 03007KT 03/M08 A3025 RMK A01 T00331075  RH  045%=      5-min Rain = 0
KPD3 010748Z 04005KT 03/M08 A3025 RMK A01 T00331075  RH  045%=      5-min Rain = 0
KPD3 010749Z 04004KT 03/M08 A3026 RMK A01 T00331075  RH  045%=      5-min Rain = 0
KPD3 010750Z 04004KT 03/M08 A3026 RMK A01 T00331075  RH  045%=      5-min Rain = 0
KPD3 010751Z 04004KT 03/M08 A3026 RMK A01 T00331075  RH  045%=      5-min Rain = 0
KPD3 010752Z 04005KT 03/M08 A3026 RMK A01 T00331075  RH  045%=      5-min Rain = 0
KPD3 010753Z 03006KT 03/M08 A3026 RMK A01 T00321075  RH  045%=      5-min Rain = 0
KPD3 010754Z 04006KT 03/M07 A3026 RMK A01 T00321074  RH  046%=      5-min Rain = 0
KPD3 010755Z 04006KT 03/M08 A3026 RMK A01 T00321075  RH  046%=      5-min Rain = 0
KPD3 010756Z 03006KT 03/M07 A3026 RMK A01 T00321074  RH  046%=      5-min Rain = 0
KPD3 010757Z 04006KT 03/M07 A3026 RMK A01 T00321074  RH  046%=      5-min Rain = 0
KPD3 010758Z 04006KT 03/M07 A3026 RMK A01 T00321074  RH  046%=      5-min Rain = 0
KPD3 010759Z 04006KT 03/M07 A3026 RMK A01 T00321073  RH  046%=      5-min Rain = 0
KPD3 010800Z 03006KT 03/M07 A3026 RMK A01 T00311073  RH  046%=      5-min Rain = 0
KPD3 010801Z 04006KT 03/M07 A3026 RMK A01 T00311073  RH  046%=      5-min Rain = 0
KPD3 010802Z 04007KT 03/M07 A3026 RMK A01 T00321074  RH  046%=      5-min Rain = 0
KPD3 010803Z 04007KT 03/M07 A3026 RMK A01 T00311074  RH  046%=      5-min Rain = 0
KPD3 010804Z 03006KT 03/M07 A3026 RMK A01 T00311074  RH  046%=      5-min Rain = 0
KPD3 010805Z 03007KT 03/M07 A3026 RMK A01 T00311074  RH  046%=      5-min Rain = 0
KPD3 010806Z 03008KT 03/M07 A3026 RMK A01 T00321073  RH  046%=      5-min Rain = 0
KPD3 010807Z 03008KT 03/M07 A3026 RMK A01 T00311074  RH  046%=      5-min Rain = 0
KPD3 010808Z 03008KT 03/M07 A3026 RMK A01 T00311074  RH  046%=      5-min Rain = 0
KPD3 010809Z 02007KT 03/M07 A3026 RMK A01 T00321074  RH  046%=      5-min Rain = 0
KPD3 010810Z 03006KT 03/M07 A3026 RMK A01 T00321074  RH  046%=      5-min Rain = 0
KPD3 010811Z 02008KT 03/M07 A3026 RMK A01 T00321073  RH  046%=      5-min Rain = 0
KPD3 010812Z 02008KT 03/M07 A3026 RMK A01 T00321073  RH  046%=      5-min Rain = 0
KPD3 010813Z 02007KT 03/M07 A3025 RMK A01 T00321074  RH  046%=      5-min Rain = 0
KPD3 010814Z 02007KT 03/M07 A3025 RMK A01 T00321073  RH  046%=      5-min Rain = 0
KPD3 010815Z 02008KT 03/M07 A3025 RMK A01 T00321074  RH  046%=      5-min Rain = 0
KPD3 010816Z 02008KT 03/M07 A3025 RMK A01 T00321073  RH  046%=      5-min Rain = 0
KPD3 010817Z 02008KT 03/M07 A3025 RMK A01 T00321073  RH  046%=      5-min Rain = 0
KPD3 010818Z 02008KT 03/M07 A3025 RMK A01 T00311073  RH  046%=      5-min Rain = 0
KPD3 010819Z 02008KT 03/M07 A3025 RMK A01 T00311073  RH  046%=      5-min Rain = 0
KPD3 010820Z 02009KT 03/M07 A3025 RMK A01 T00311073  RH  046%=      5-min Rain = 0
KPD3 010821Z 02009KT 03/M07 A3024 RMK A01 T00311073  RH  046%=      5-min Rain = 0
KPD3 010822Z 02009KT 03/M07 A3024 RMK A01 T00321073  RH  046%=      5-min Rain = 0
KPD3 010823Z 02009KT 03/M07 A3024 RMK A01 T00311073  RH  046%=      5-min Rain = 0
KPD3 010824Z 01008KT 03/M07 A3024 RMK A01 T00311073  RH  046%=      5-min Rain = 0
KPD3 010825Z 02008KT 03/M07 A3024 RMK A01 T00301074  RH  046%=      5-min Rain = 0
KPD3 010826Z 02009KT 03/M07 A3024 RMK A01 T00301074  RH  046%=      5-min Rain = 0
KPD3 010827Z 02008KT 03/M07 A3024 RMK A01 T00301074  RH  046%=      5-min Rain = 0
KPD3 010828Z 02009KT 03/M07 A3024 RMK A01 T00301074  RH  046%=      5-min Rain = 0
KPD3 010829Z 02008KT 03/M07 A3024 RMK A01 T00291074  RH  047%=      5-min Rain = 0
KPD3 010830Z 02009KT 03/M07 A3024 RMK A01 T00291074  RH  047%=      5-min Rain = 0
KPD3 010831Z 02008KT 03/M07 A3024 RMK A01 T00291074  RH  047%=      5-min Rain = 0
KPD3 010832Z 02008KT 03/M07 A3024 RMK A01 T00291074  RH  047%=      5-min Rain = 0
KPD3 010833Z 02009KT 03/M07 A3024 RMK A01 T00291074  RH  047%=      5-min Rain = 0
KPD3 010834Z 02008KT 03/M07 A3024 RMK A01 T00281074  RH  047%=      5-min Rain = 0
KPD3 010835Z 02009KT 03/M07 A3024 RMK A01 T00291074  RH  047%=      5-min Rain = 0
KPD3 010836Z 01009KT 03/M07 A3024 RMK A01 T00281074  RH  047%=      5-min Rain = 0
KPD3 010837Z 01009KT 03/M07 A3023 RMK A01 T00281074  RH  047%=      5-min Rain = 0
KPD3 010838Z 01008KT 03/M07 A3023 RMK A01 T00281074  RH  047%=      5-min Rain = 0
KPD3 010839Z 01008KT 03/M07 A3024 RMK A01 T00271074  RH  047%=      5-min Rain = 0
KPD3 010840Z 01008KT 03/M07 A3024 RMK A01 T00271074  RH  047%=      5-min Rain = 0
KPD3 010841Z 01008KT 03/M07 A3024 RMK A01 T00271074  RH  047%=      5-min Rain = 0
KPD3 010842Z 02008KT 03/M07 A3024 RMK A01 T00271074  RH  048%=      5-min Rain = 0
KPD3 010843Z 01008KT 03/M07 A3024 RMK A01 T00261074  RH  048%=      5-min Rain = 0
KPD3 010844Z 02007KT 03/M07 A3024 RMK A01 T00261073  RH  048%=      5-min Rain = 0
KPD3 010845Z 01007KT 03/M07 A3024 RMK A01 T00261073  RH  048%=      5-min Rain = 0
KPD3 010846Z 01008KT 03/M07 A3023 RMK A01 T00251074  RH  048%=      5-min Rain = 0
KPD3 010847Z 02008KT 03/M07 A3024 RMK A01 T00251074  RH  048%=      5-min Rain = 0
KPD3 010848Z 02008KT 03/M07 A3024 RMK A01 T00251074  RH  048%=      5-min Rain = 0
KPD3 010849Z 01007KT 03/M07 A3024 RMK A01 T00261073  RH  048%=      5-min Rain = 0
KPD3 010850Z 01008KT 03/M07 A3024 RMK A01 T00261073  RH  048%=      5-min Rain = 0
KPD3 010851Z 01008KT 03/M07 A3024 RMK A01 T00251073  RH  048%=      5-min Rain = 0
KPD3 010852Z 36008KT 03/M07 A3024 RMK A01 T00251073  RH  048%=      5-min Rain = 0
KPD3 010853Z 00008KT 03/M07 A3024 RMK A01 T00251074  RH  048%=      5-min Rain = 0
KPD3 010854Z 36008KT 03/M07 A3024 RMK A01 T00261074  RH  048%=      5-min Rain = 0
KPD3 010855Z 36008KT 03/M07 A3024 RMK A01 T00261073  RH  048%=      5-min Rain = 0
KPD3 010856Z 00007KT 03/M07 A3024 RMK A01 T00251073  RH  048%=      5-min Rain = 0
KPD3 010857Z 00007KT 03/M07 A3024 RMK A01 T00251073  RH  048%=      5-min Rain = 0
KPD3 010858Z 36007KT 03/M07 A3024 RMK A01 T00251073  RH  049%=      5-min Rain = 0
KPD3 010859Z 36007KT 02/M07 A3024 RMK A01 T00241073  RH  049%=      5-min Rain = 0
KPD3 010900Z 01007KT 02/M07 A3024 RMK A01 T00241073  RH  049%=      5-min Rain = 0
KPD3 010901Z 01008KT 02/M07 A3024 RMK A01 T00241073  RH  049%=      5-min Rain = 0
KPD3 010902Z 01009KT 02/M07 A3024 RMK A01 T00241073  RH  049%=      5-min Rain = 0
KPD3 010903Z 00009KT 02/M07 A3023 RMK A01 T00241073  RH  048%=      5-min Rain = 0
KPD3 010904Z 01007KT 03/M07 A3023 RMK A01 T00251073  RH  048%=      5-min Rain = 0
KPD3 010905Z 01008KT 03/M07 A3023 RMK A01 T00251073  RH  049%=      5-min Rain = 0
KPD3 010906Z 01008KT 02/M07 A3023 RMK A01 T00241073  RH  049%=      5-min Rain = 0
KPD3 010907Z 01007KT 02/M07 A3023 RMK A01 T00241074  RH  048%=      5-min Rain = 0
KPD3 010908Z 01008KT 02/M07 A3023 RMK A01 T00231074  RH  049%=      5-min Rain = 0
KPD3 010909Z 01009KT 02/M07 A3023 RMK A01 T00231074  RH  049%=      5-min Rain = 0
KPD3 010910Z 01008KT 02/M07 A3023 RMK A01 T00221074  RH  049%=      5-min Rain = 0
KPD3 010911Z 01008KT 02/M07 A3022 RMK A01 T00211074  RH  049%=      5-min Rain = 0
KPD3 010912Z 01008KT 02/M07 A3022 RMK A01 T00201074  RH  050%=      5-min Rain = 0
KPD3 010913Z 01008KT 02/M07 A3022 RMK A01 T00201074  RH  050%=      5-min Rain = 0
KPD3 010914Z 01008KT 02/M07 A3022 RMK A01 T00191074  RH  050%=      5-min Rain = 0
KPD3 010915Z 01009KT 02/M07 A3022 RMK A01 T00191074  RH  050%=      5-min Rain = 0
KPD3 010916Z 02009KT 02/M08 A3021 RMK A01 T00181075  RH  050%=      5-min Rain = 0
KPD3 010917Z 01010KT 02/M08 A3021 RMK A01 T00191075  RH  050%=      5-min Rain = 0
KPD3 010918Z 01011KT 02/M08 A3021 RMK A01 T00191075  RH  050%=      5-min Rain = 0
KPD3 010919Z 01010KT 02/M08 A3021 RMK A01 T00191075  RH  050%=      5-min Rain = 0
KPD3 010920Z 00009KT 02/M08 A3022 RMK A01 T00191075  RH  050%=      5-min Rain = 0
KPD3 010921Z 00008KT 02/M08 A3021 RMK A01 T00181075  RH  050%=      5-min Rain = 0
KPD3 010922Z 00009KT 02/M08 A3021 RMK A01 T00171075  RH  050%=      5-min Rain = 0
KPD3 010923Z 01009KT 02/M08 A3021 RMK A01 T00161075  RH  051%=      5-min Rain = 0
KPD3 010924Z 01009KT 02/M08 A3021 RMK A01 T00161075  RH  051%=      5-min Rain = 0
KPD3 010925Z 01009KT 02/M07 A3021 RMK A01 T00161074  RH  051%=      5-min Rain = 0
KPD3 010926Z 01009KT 02/M07 A3021 RMK A01 T00161074  RH  051%=      5-min Rain = 0
KPD3 010927Z 01008KT 02/M07 A3021 RMK A01 T00161074  RH  051%=      5-min Rain = 0
KPD3 010928Z 00007KT 02/M07 A3022 RMK A01 T00161074  RH  051%=      5-min Rain = 0
KPD3 010929Z 01007KT 02/M07 A3022 RMK A01 T00161074  RH  051%=      5-min Rain = 0
KPD3 010930Z 01008KT 02/M07 A3022 RMK A01 T00161074  RH  051%=      5-min Rain = 0
KPD3 010931Z 00008KT 02/M07 A3022 RMK A01 T00161074  RH  051%=      5-min Rain = 0
KPD3 010932Z 00007KT 02/M07 A3022 RMK A01 T00161074  RH  051%=      5-min Rain = 0
KPD3 010933Z 36008KT 02/M07 A3022 RMK A01 T00171074  RH  051%=      5-min Rain = 0
KPD3 010934Z 35008KT 02/M07 A3022 RMK A01 T00171074  RH  051%=      5-min Rain = 0
KPD3 010935Z 36007KT 02/M07 A3022 RMK A01 T00171073  RH  051%=      5-min Rain = 0
KPD3 010936Z 36007KT 02/M07 A3022 RMK A01 T00171073  RH  051%=      5-min Rain = 0
KPD3 010937Z 00008KT 02/M07 A3022 RMK A01 T00171072  RH  051%=      5-min Rain = 0
KPD3 010938Z 36008KT 02/M07 A3022 RMK A01 T00171073  RH  051%=      5-min Rain = 0
KPD3 010939Z 36009KT 02/M07 A3022 RMK A01 T00171073  RH  051%=      5-min Rain = 0
KPD3 010940Z 36008KT 02/M07 A3022 RMK A01 T00181072  RH  051%=      5-min Rain = 0
KPD3 010941Z 35008KT 02/M07 A3022 RMK A01 T00181072  RH  051%=      5-min Rain = 0
KPD3 010942Z 36009KT 02/M07 A3022 RMK A01 T00181072  RH  051%=      5-min Rain = 0
KPD3 010943Z 36009KT 02/M07 A3022 RMK A01 T00181073  RH  051%=      5-min Rain = 0
KPD3 010944Z 00009KT 02/M07 A3022 RMK A01 T00181073  RH  051%=      5-min Rain = 0
KPD3 010945Z 00007KT 02/M07 A3022 RMK A01 T00181073  RH  051%=      5-min Rain = 0
KPD3 010946Z 00008KT 02/M07 A3022 RMK A01 T00191073  RH  051%=      5-min Rain = 0
KPD3 010947Z 00008KT 02/M07 A3022 RMK A01 T00181073  RH  051%=      5-min Rain = 0
KPD3 010948Z 00009KT 02/M07 A3022 RMK A01 T00191073  RH  051%=      5-min Rain = 0
KPD3 010949Z 00008KT 02/M07 A3022 RMK A01 T00181073  RH  051%=      5-min Rain = 0
KPD3 010950Z 00008KT 02/M07 A3022 RMK A01 T00181073  RH  051%=      5-min Rain = 0
KPD3 010951Z 00007KT 02/M07 A3022 RMK A01 T00181073  RH  051%=      5-min Rain = 0
KPD3 010952Z 00007KT 02/M07 A3023 RMK A01 T00181073  RH  051%=      5-min Rain = 0
KPD3 010953Z 00007KT 02/M07 A3023 RMK A01 T00171073  RH  051%=      5-min Rain = 0
KPD3 010954Z 01006KT 02/M07 A3023 RMK A01 T00171073  RH  051%=      5-min Rain = 0
KPD3 010955Z 01006KT 02/M07 A3023 RMK A01 T00171074  RH  051%=      5-min Rain = 0
KPD3 010956Z 01006KT 02/M07 A3023 RMK A01 T00171073  RH  051%=      5-min Rain = 0
KPD3 010957Z 01006KT 02/M07 A3023 RMK A01 T00171073  RH  051%=      5-min Rain = 0
KPD3 010958Z 01006KT 02/M07 A3023 RMK A01 T00171073  RH  051%=      5-min Rain = 0
KPD3 010959Z 01006KT 02/M07 A3023 RMK A01 T00161073  RH  052%=      5-min Rain = 0
KPD3 011000Z 01005KT 02/M07 A3023 RMK A01 T00161073  RH  052%=      5-min Rain = 0
KPD3 011001Z 01005KT 02/M07 A3023 RMK A01 T00161073  RH  052%=      5-min Rain = 0
KPD3 011002Z 01005KT 02/M07 A3023 RMK A01 T00161073  RH  052%=      5-min Rain = 0
KPD3 011003Z 01005KT 02/M07 A3023 RMK A01 T00161073  RH  052%=      5-min Rain = 0
KPD3 011004Z 01004KT 02/M07 A3023 RMK A01 T00161073  RH  052%=      5-min Rain = 0
KPD3 011005Z 01005KT 02/M07 A3023 RMK A01 T00161073  RH  051%=      5-min Rain = 0
KPD3 011006Z 02004KT 02/M07 A3024 RMK A01 T00171073  RH  051%=      5-min Rain = 0
KPD3 011007Z 02005KT 02/M07 A3024 RMK A01 T00171073  RH  051%=      5-min Rain = 0
KPD3 011008Z 02005KT 02/M07 A3024 RMK A01 T00171073  RH  051%=      5-min Rain = 0
KPD3 011009Z 03003KT 02/M07 A3024 RMK A01 T00171073  RH  051%=      5-min Rain = 0
KPD3 011010Z 04003KT 02/M07 A3024 RMK A01 T00171072  RH  051%=      5-min Rain = 0
KPD3 011011Z 05003KT 02/M07 A3024 RMK A01 T00171072  RH  052%=      5-min Rain = 0
KPD3 011012Z 05003KT 02/M07 A3024 RMK A01 T00171072  RH  052%=      5-min Rain = 0
KPD3 011013Z 05003KT 02/M07 A3025 RMK A01 T00171072  RH  052%=      5-min Rain = 0
KPD3 011014Z 06002KT 02/M07 A3025 RMK A01 T00161072  RH  052%=      5-min Rain = 0
KPD3 011015Z 06001KT 02/M07 A3025 RMK A01 T00161072  RH  052%=      5-min Rain = 0
KPD3 011016Z 06002KT 02/M07 A3025 RMK A01 T00161072  RH  052%=      5-min Rain = 0
KPD3 011017Z 05002KT 02/M07 A3025 RMK A01 T00161072  RH  052%=      5-min Rain = 0
KPD3 011018Z 05002KT 02/M07 A3026 RMK A01 T00161072  RH  052%=      5-min Rain = 0
KPD3 011019Z 05002KT 02/M07 A3026 RMK A01 T00161072  RH  052%=      5-min Rain = 0
KPD3 011020Z 06001KT 02/M07 A3026 RMK A01 T00161071  RH  052%=      5-min Rain = 0
KPD3 011021Z 06001KT 02/M07 A3026 RMK A01 T00161071  RH  052%=      5-min Rain = 0
KPD3 011022Z 06001KT 02/M07 A3026 RMK A01 T00161072  RH  052%=      5-min Rain = 0
KPD3 011023Z 06001KT 02/M07 A3026 RMK A01 T00161072  RH  052%=      5-min Rain = 0
KPD3 011024Z 07001KT 02/M07 A3026 RMK A01 T00161073  RH  052%=      5-min Rain = 0
KPD3 011025Z 07002KT 02/M07 A3026 RMK A01 T00171073  RH  051%=      5-min Rain = 0
KPD3 011026Z 06001KT 02/M07 A3026 RMK A01 T00171073  RH  051%=      5-min Rain = 0
KPD3 011027Z 05002KT 02/M07 A3026 RMK A01 T00171072  RH  051%=      5-min Rain = 0
KPD3 011028Z 05002KT 02/M07 A3027 RMK A01 T00171072  RH  052%=      5-min Rain = 0
KPD3 011029Z 03001KT 02/M07 A3027 RMK A01 T00171072  RH  052%=      5-min Rain = 0
KPD3 011030Z 02001KT 02/M07 A3027 RMK A01 T00171072  RH  051%=      5-min Rain = 0
KPD3 011031Z 01002KT 02/M07 A3027 RMK A01 T00171073  RH  051%=      5-min Rain = 0
KPD3 011032Z 01002KT 02/M07 A3026 RMK A01 T00171073  RH  051%=      5-min Rain = 0
KPD3 011033Z 02002KT 02/M07 A3026 RMK A01 T00181073  RH  051%=      5-min Rain = 0
KPD3 011034Z 02002KT 02/M07 A3026 RMK A01 T00181074  RH  051%=      5-min Rain = 0
KPD3 011035Z 02002KT 02/M07 A3026 RMK A01 T00181074  RH  051%=      5-min Rain = 0
KPD3 011036Z 02003KT 02/M07 A3026 RMK A01 T00181074  RH  051%=      5-min Rain = 0
KPD3 011037Z 02002KT 02/M07 A3026 RMK A01 T00181074  RH  051%=      5-min Rain = 0
KPD3 011038Z 02002KT 02/M07 A3026 RMK A01 T00181073  RH  051%=      5-min Rain = 0
KPD3 011039Z 01003KT 02/M07 A3026 RMK A01 T00181073  RH  051%=      5-min Rain = 0
KPD3 011040Z 02002KT 02/M07 A3026 RMK A01 T00171073  RH  051%=      5-min Rain = 0
KPD3 011041Z 02002KT 02/M07 A3026 RMK A01 T00171073  RH  051%=      5-min Rain = 0
KPD3 011042Z 01002KT 02/M07 A3027 RMK A01 T00171073  RH  051%=      5-min Rain = 0
KPD3 011043Z 00002KT 02/M07 A3027 RMK A01 T00171072  RH  052%=      5-min Rain = 0
KPD3 011044Z 00002KT 02/M07 A3027 RMK A01 T00171072  RH  052%=      5-min Rain = 0
KPD3 011045Z 00002KT 02/M07 A3027 RMK A01 T00161073  RH  052%=      5-min Rain = 0
KPD3 011046Z 36002KT 02/M07 A3027 RMK A01 T00161072  RH  052%=      5-min Rain = 0
KPD3 011047Z 35002KT 02/M07 A3027 RMK A01 T00161072  RH  052%=      5-min Rain = 0
KPD3 011048Z 35002KT 02/M07 A3027 RMK A01 T00161072  RH  052%=      5-min Rain = 0
KPD3 011049Z 34002KT 02/M07 A3027 RMK A01 T00161071  RH  052%=      5-min Rain = 0
KPD3 011050Z 33003KT 02/M07 A3027 RMK A01 T00161070  RH  053%=      5-min Rain = 0
KPD3 011051Z 34003KT 02/M07 A3027 RMK A01 T00151069  RH  054%=      5-min Rain = 0
KPD3 011052Z 33003KT 01/M07 A3027 RMK A01 T00141069  RH  054%=      5-min Rain = 0
KPD3 011053Z 33004KT 01/M07 A3027 RMK A01 T00141069  RH  054%=      5-min Rain = 0
KPD3 011054Z 34004KT 01/M07 A3027 RMK A01 T00141069  RH  054%=      5-min Rain = 0
KPD3 011055Z 34005KT 01/M07 A3027 RMK A01 T00131069  RH  055%=      5-min Rain = 0
KPD3 011056Z 34005KT 01/M07 A3027 RMK A01 T00131068  RH  055%=      5-min Rain = 0
KPD3 011057Z 34005KT 01/M07 A3027 RMK A01 T00121068  RH  055%=      5-min Rain = 0
KPD3 011058Z 35006KT 01/M07 A3027 RMK A01 T00121067  RH  055%=      5-min Rain = 0
KPD3 011059Z 35006KT 01/M07 A3026 RMK A01 T00121068  RH  056%=      5-min Rain = 0
KPD3 011100Z 35007KT 01/M07 A3026 RMK A01 T00121068  RH  056%=      5-min Rain = 0
KPD3 011101Z 35007KT 01/M07 A3026 RMK A01 T00121067  RH  056%=      5-min Rain = 0
KPD3 011102Z 35007KT 01/M07 A3026 RMK A01 T00121067  RH  056%=      5-min Rain = 0
KPD3 011103Z 35007KT 01/M07 A3026 RMK A01 T00121067  RH  056%=      5-min Rain = 0
KPD3 011104Z 34007KT 01/M07 A3026 RMK A01 T00121068  RH  055%=      5-min Rain = 0
KPD3 011105Z 35008KT 01/M07 A3026 RMK A01 T00121068  RH  055%=      5-min Rain = 0
KPD3 011106Z 34008KT 01/M07 A3026 RMK A01 T00131068  RH  055%=      5-min Rain = 0
KPD3 011107Z 34007KT 01/M07 A3026 RMK A01 T00131069  RH  055%=      5-min Rain = 0
KPD3 011108Z 34007KT 01/M07 A3026 RMK A01 T00131068  RH  055%=      5-min Rain = 0
KPD3 011109Z 34007KT 01/M07 A3026 RMK A01 T00131068  RH  055%=      5-min Rain = 0
KPD3 011110Z 34007KT 01/M07 A3026 RMK A01 T00131068  RH  055%=      5-min Rain = 0
KPD3 011111Z 34006KT 01/M07 A3026 RMK A01 T00131068  RH  055%=      5-min Rain = 0
KPD3 011112Z 34006KT 01/M07 A3026 RMK A01 T00131068  RH  055%=      5-min Rain = 0
KPD3 011113Z 34005KT 01/M07 A3026 RMK A01 T00131068  RH  055%=      5-min Rain = 0
KPD3 011114Z 34006KT 01/M07 A3026 RMK A01 T00131068  RH  055%=      5-min Rain = 0
KPD3 011115Z 34006KT 01/M07 A3026 RMK A01 T00131068  RH  055%=      5-min Rain = 0
KPD3 011116Z 34005KT 01/M07 A3026 RMK A01 T00131068  RH  055%=      5-min Rain = 0
KPD3 011117Z 34005KT 01/M07 A3027 RMK A01 T00131068  RH  055%=      5-min Rain = 0
KPD3 011118Z 34006KT 01/M07 A3027 RMK A01 T00131068  RH  055%=      5-min Rain = 0
KPD3 011119Z 34006KT 01/M07 A3027 RMK A01 T00131068  RH  055%=      5-min Rain = 0
KPD3 011120Z 34007KT 01/M07 A3027 RMK A01 T00131068  RH  055%=      5-min Rain = 0
KPD3 011121Z 34007KT 01/M07 A3027 RMK A01 T00131068  RH  055%=      5-min Rain = 0
KPD3 011122Z 34007KT 01/M07 A3027 RMK A01 T00131068  RH  055%=      5-min Rain = 0
KPD3 011123Z 34006KT 01/M07 A3027 RMK A01 T00141068  RH  054%=      5-min Rain = 0
KPD3 011124Z 34007KT 01/M07 A3027 RMK A01 T00141068  RH  054%=      5-min Rain = 0
KPD3 011125Z 34007KT 01/M07 A3027 RMK A01 T00141068  RH  054%=      5-min Rain = 0
KPD3 011126Z 34006KT 02/M07 A3028 RMK A01 T00151068  RH  054%=      5-min Rain = 0
KPD3 011127Z 34006KT 02/M07 A3028 RMK A01 T00151068  RH  054%=      5-min Rain = 0
KPD3 011128Z 34007KT 02/M07 A3028 RMK A01 T00161069  RH  053%=      5-min Rain = 0
KPD3 011129Z 35007KT 02/M07 A3028 RMK A01 T00161069  RH  053%=      5-min Rain = 0
KPD3 011130Z 35006KT 02/M07 A3028 RMK A01 T00171069  RH  053%=      5-min Rain = 0
KPD3 011131Z 35006KT 02/M07 A3028 RMK A01 T00171070  RH  053%=      5-min Rain = 0
KPD3 011132Z 35006KT 02/M07 A3028 RMK A01 T00171070  RH  053%=      5-min Rain = 0
KPD3 011133Z 34007KT 02/M07 A3028 RMK A01 T00171069  RH  053%=      5-min Rain = 0
KPD3 011134Z 34007KT 02/M07 A3028 RMK A01 T00171069  RH  053%=      5-min Rain = 0
KPD3 011135Z 35007KT 02/M07 A3028 RMK A01 T00171070  RH  053%=      5-min Rain = 0
KPD3 011136Z 35005KT 02/M07 A3029 RMK A01 T00171070  RH  053%=      5-min Rain = 0
KPD3 011137Z 35006KT 02/M07 A3029 RMK A01 T00171070  RH  053%=      5-min Rain = 0
KPD3 011138Z 35006KT 02/M07 A3029 RMK A01 T00171069  RH  053%=      5-min Rain = 0
KPD3 011139Z 35006KT 02/M07 A3029 RMK A01 T00171069  RH  053%=      5-min Rain = 0
KPD3 011140Z 35007KT 02/M07 A3029 RMK A01 T00171070  RH  053%=      5-min Rain = 0
KPD3 011141Z 36006KT 02/M07 A3029 RMK A01 T00171070  RH  053%=      5-min Rain = 0
KPD3 011142Z 35007KT 02/M07 A3029 RMK A01 T00171070  RH  053%=      5-min Rain = 0
KPD3 011143Z 35007KT 02/M07 A3029 RMK A01 T00171070  RH  052%=      5-min Rain = 0
KPD3 011144Z 35006KT 02/M07 A3029 RMK A01 T00171070  RH  052%=      5-min Rain = 0
KPD3 011145Z 35006KT 02/M07 A3029 RMK A01 T00171070  RH  052%=      5-min Rain = 0
KPD3 011146Z 36005KT 02/M07 A3029 RMK A01 T00171070  RH  053%=      5-min Rain = 0
KPD3 011147Z 35006KT 02/M07 A3029 RMK A01 T00171069  RH  053%=      5-min Rain = 0
KPD3 011148Z 36006KT 02/M07 A3029 RMK A01 T00161069  RH  053%=      5-min Rain = 0
KPD3 011149Z 36006KT 02/M07 A3029 RMK A01 T00161069  RH  053%=      5-min Rain = 0
KPD3 011150Z 35006KT 02/M07 A3029 RMK A01 T00161069  RH  053%=      5-min Rain = 0
KPD3 011151Z 35006KT 02/M07 A3029 RMK A01 T00161069  RH  053%=      5-min Rain = 0
KPD3 011152Z 35007KT 02/M07 A3029 RMK A01 T00151069  RH  053%=      5-min Rain = 0
KPD3 011153Z 35007KT 02/M07 A3029 RMK A01 T00151069  RH  053%=      5-min Rain = 0
KPD3 011154Z 35007KT 02/M07 A3029 RMK A01 T00151069  RH  053%=      5-min Rain = 0
KPD3 011155Z 35007KT 02/M07 A3029 RMK A01 T00151069  RH  053%=      5-min Rain = 0
KPD3 011156Z 34008KT 02/M07 A3029 RMK A01 T00151069  RH  053%=      5-min Rain = 0
KPD3 011157Z 35008KT 02/M07 A3029 RMK A01 T00161069  RH  053%=      5-min Rain = 0
KPD3 011158Z 35008KT 02/M07 A3029 RMK A01 T00161069  RH  053%=      5-min Rain = 0
KPD3 011159Z 35007KT 02/M07 A3029 RMK A01 T00151070  RH  053%=      5-min Rain = 0
KPD3 011200Z 35007KT 02/M07 A3029 RMK A01 T00161069  RH  053%=      5-min Rain = 0
KPD3 011201Z 35007KT 02/M07 A3029 RMK A01 T00161070  RH  053%=      5-min Rain = 0
KPD3 011202Z 35007KT 02/M07 A3029 RMK A01 T00161070  RH  053%=      5-min Rain = 0
KPD3 011203Z 35007KT 02/M07 A3029 RMK A01 T00161070  RH  053%=      5-min Rain = 0
KPD3 011204Z 35008KT 02/M07 A3029 RMK A01 T00161069  RH  053%=      5-min Rain = 0
KPD3 011205Z 35008KT 02/M07 A3029 RMK A01 T00161069  RH  053%=      5-min Rain = 0
KPD3 011206Z 35009KT 02/M07 A3029 RMK A01 T00161069  RH  053%=      5-min Rain = 0
KPD3 011207Z 35009KT 02/M07 A3029 RMK A01 T00151069  RH  053%=      5-min Rain = 0
KPD3 011208Z 35008KT 02/M07 A3029 RMK A01 T00151069  RH  053%=      5-min Rain = 0
KPD3 011209Z 35007KT 02/M07 A3029 RMK A01 T00151069  RH  054%=      5-min Rain = 0
KPD3 011210Z 35007KT 02/M07 A3029 RMK A01 T00161069  RH  054%=      5-min Rain = 0
KPD3 011211Z 35007KT 02/M07 A3029 RMK A01 T00151069  RH  054%=      5-min Rain = 0
KPD3 011212Z 35007KT 02/M07 A3029 RMK A01 T00151069  RH  054%=      5-min Rain = 0
KPD3 011213Z 35007KT 01/M07 A3029 RMK A01 T00141069  RH  054%=      5-min Rain = 0
KPD3 011214Z 35007KT 01/M07 A3029 RMK A01 T00141069  RH  054%=      5-min Rain = 0
KPD3 011215Z 35007KT 02/M07 A3029 RMK A01 T00151069  RH  054%=      5-min Rain = 0
KPD3 011216Z 35008KT 01/M07 A3029 RMK A01 T00141070  RH  053%=      5-min Rain = 0
KPD3 011217Z 35008KT 02/M07 A3029 RMK A01 T00151069  RH  054%=      5-min Rain = 0
KPD3 011218Z 35008KT 02/M07 A3029 RMK A01 T00151070  RH  053%=      5-min Rain = 0
KPD3 011219Z 35008KT 02/M07 A3029 RMK A01 T00151069  RH  053%=      5-min Rain = 0
KPD3 011220Z 35007KT 02/M07 A3029 RMK A01 T00151069  RH  053%=      5-min Rain = 0
KPD3 011221Z 34008KT 02/M07 A303 RMK A01 T00151069  RH  053%=      5-min Rain = 0
KPD3 011222Z 34007KT 02/M07 A303 RMK A01 T00151070  RH  053%=      5-min Rain = 0
KPD3 011223Z 34006KT 02/M07 A303 RMK A01 T00151070  RH  053%=      5-min Rain = 0
KPD3 011224Z 35006KT 02/M07 A303 RMK A01 T00151070  RH  053%=      5-min Rain = 0
KPD3 011225Z 35007KT 02/M07 A303 RMK A01 T00151070  RH  053%=      5-min Rain = 0
KPD3 011226Z 35006KT 02/M07 A303 RMK A01 T00151071  RH  053%=      5-min Rain = 0
KPD3 011227Z 35005KT 02/M07 A303 RMK A01 T00151070  RH  053%=      5-min Rain = 0
KPD3 011228Z 35006KT 02/M07 A303 RMK A01 T00161070  RH  053%=      5-min Rain = 0
KPD3 011229Z 35006KT 02/M07 A303 RMK A01 T00151071  RH  053%=      5-min Rain = 0
KPD3 011230Z 35007KT 02/M07 A303 RMK A01 T00151071  RH  053%=      5-min Rain = 0
KPD3 011231Z 35006KT 02/M07 A303 RMK A01 T00161071  RH  053%=      5-min Rain = 0
KPD3 011232Z 35007KT 02/M07 A303 RMK A01 T00161071  RH  053%=      5-min Rain = 0
KPD3 011233Z 35007KT 02/M07 A303 RMK A01 T00161071  RH  053%=      5-min Rain = 0
KPD3 011234Z 35007KT 02/M07 A303 RMK A01 T00161071  RH  052%=      5-min Rain = 0
KPD3 011235Z 35007KT 02/M07 A303 RMK A01 T00161071  RH  052%=      5-min Rain = 0
KPD3 011236Z 35007KT 02/M07 A303 RMK A01 T00161072  RH  052%=      5-min Rain = 0
KPD3 011237Z 35007KT 02/M07 A303 RMK A01 T00161071  RH  052%=      5-min Rain = 0
KPD3 011238Z 35008KT 02/M07 A303 RMK A01 T00161072  RH  052%=      5-min Rain = 0
KPD3 011239Z 35006KT 02/M07 A303 RMK A01 T00161072  RH  052%=      5-min Rain = 0
KPD3 011240Z 35007KT 02/M07 A303 RMK A01 T00161072  RH  052%=      5-min Rain = 0
KPD3 011241Z 35007KT 02/M07 A303 RMK A01 T00161072  RH  052%=      5-min Rain = 0
KPD3 011242Z 35007KT 02/M07 A303 RMK A01 T00161072  RH  052%=      5-min Rain = 0
KPD3 011243Z 35007KT 02/M07 A303 RMK A01 T00161072  RH  052%=      5-min Rain = 0
KPD3 011244Z 35008KT 02/M07 A303 RMK A01 T00161073  RH  052%=      5-min Rain = 0
KPD3 011245Z 35007KT 02/M07 A303 RMK A01 T00171073  RH  052%=      5-min Rain = 0
KPD3 011246Z 34007KT 02/M07 A303 RMK A01 T00171073  RH  051%=      5-min Rain = 0
KPD3 011247Z 34007KT 02/M07 A303 RMK A01 T00171073  RH  051%=      5-min Rain = 0
KPD3 011248Z 34007KT 02/M07 A303 RMK A01 T00171073  RH  051%=      5-min Rain = 0
KPD3 011249Z 34007KT 02/M07 A303 RMK A01 T00181073  RH  051%=      5-min Rain = 0
KPD3 011250Z 34006KT 02/M07 A303 RMK A01 T00181073  RH  051%=      5-min Rain = 0
KPD3 011251Z 34007KT 02/M07 A303 RMK A01 T00181073  RH  051%=      5-min Rain = 0
KPD3 011252Z 34007KT 02/M07 A303 RMK A01 T00181072  RH  051%=      5-min Rain = 0
KPD3 011253Z 35007KT 02/M07 A303 RMK A01 T00181073  RH  051%=      5-min Rain = 0
KPD3 011254Z 35006KT 02/M07 A303 RMK A01 T00181073  RH  051%=      5-min Rain = 0
KPD3 011255Z 35007KT 02/M07 A303 RMK A01 T00181073  RH  051%=      5-min Rain = 0
KPD3 011256Z 35006KT 02/M07 A303 RMK A01 T00181072  RH  051%=      5-min Rain = 0
KPD3 011257Z 35006KT 02/M07 A303 RMK A01 T00181072  RH  051%=      5-min Rain = 0
KPD3 011258Z 35006KT 02/M07 A303 RMK A01 T00181072  RH  051%=      5-min Rain = 0
KPD3 011259Z 35008KT 02/M07 A303 RMK A01 T00181072  RH  051%=      5-min Rain = 0
KPD3 011300Z 36008KT 02/M07 A303 RMK A01 T00171073  RH  051%=      5-min Rain = 0
KPD3 011301Z 36007KT 02/M07 A303 RMK A01 T00171073  RH  051%=      5-min Rain = 0
KPD3 011302Z 36007KT 02/M07 A303 RMK A01 T00181072  RH  051%=      5-min Rain = 0
KPD3 011303Z 35008KT 02/M07 A303 RMK A01 T00181072  RH  052%=      5-min Rain = 0
KPD3 011304Z 36008KT 02/M07 A303 RMK A01 T00181072  RH  052%=      5-min Rain = 0
KPD3 011305Z 00007KT 02/M07 A303 RMK A01 T00171072  RH  052%=      5-min Rain = 0
KPD3 011306Z 00007KT 02/M07 A303 RMK A01 T00171071  RH  052%=      5-min Rain = 0
KPD3 011307Z 36006KT 02/M07 A303 RMK A01 T00161071  RH  052%=      5-min Rain = 0
KPD3 011308Z 36006KT 02/M07 A3031 RMK A01 T00161071  RH  052%=      5-min Rain = 0
KPD3 011309Z 35008KT 02/M07 A3031 RMK A01 T00161071  RH  052%=      5-min Rain = 0
KPD3 011310Z 36008KT 02/M07 A3031 RMK A01 T00151072  RH  052%=      5-min Rain = 0
KPD3 011311Z 35007KT 02/M07 A3031 RMK A01 T00151072  RH  052%=      5-min Rain = 0
KPD3 011312Z 36008KT 02/M07 A3031 RMK A01 T00161072  RH  052%=      5-min Rain = 0
KPD3 011313Z 35008KT 02/M07 A3031 RMK A01 T00161071  RH  052%=      5-min Rain = 0
KPD3 011314Z 35007KT 02/M07 A3031 RMK A01 T00161072  RH  052%=      5-min Rain = 0
KPD3 011315Z 36007KT 02/M07 A3031 RMK A01 T00151072  RH  052%=      5-min Rain = 0
KPD3 011316Z 36007KT 02/M07 A3031 RMK A01 T00151072  RH  052%=      5-min Rain = 0
KPD3 011317Z 00007KT 02/M07 A3031 RMK A01 T00151072  RH  052%=      5-min Rain = 0
KPD3 011318Z 36009KT 02/M07 A3031 RMK A01 T00151072  RH  053%=      5-min Rain = 0
KPD3 011319Z 00008KT 02/M07 A3031 RMK A01 T00151072  RH  052%=      5-min Rain = 0
KPD3 011320Z 00007KT 02/M07 A3031 RMK A01 T00151072  RH  052%=      5-min Rain = 0
KPD3 011321Z 36008KT 02/M07 A3031 RMK A01 T00151072  RH  052%=      5-min Rain = 0
KPD3 011322Z 01007KT 02/M07 A3031 RMK A01 T00151072  RH  052%=      5-min Rain = 0
KPD3 011323Z 00008KT 02/M07 A3031 RMK A01 T00151072  RH  052%=      5-min Rain = 0
KPD3 011324Z 00007KT 02/M07 A3031 RMK A01 T00151072  RH  053%=      5-min Rain = 0
KPD3 011325Z 00008KT 02/M07 A3032 RMK A01 T00151072  RH  053%=      5-min Rain = 0
KPD3 011326Z 00007KT 01/M07 A3032 RMK A01 T00141071  RH  053%=      5-min Rain = 0
KPD3 011327Z 00008KT 01/M07 A3032 RMK A01 T00141071  RH  053%=      5-min Rain = 0
KPD3 011328Z 00007KT 01/M07 A3032 RMK A01 T00141071  RH  053%=      5-min Rain = 0
KPD3 011329Z 01006KT 01/M07 A3032 RMK A01 T00141071  RH  053%=      5-min Rain = 0
KPD3 011330Z 01006KT 01/M07 A3032 RMK A01 T00141071  RH  053%=      5-min Rain = 0
KPD3 011331Z 01005KT 01/M07 A3032 RMK A01 T00141070  RH  053%=      5-min Rain = 0
KPD3 011332Z 00005KT 01/M07 A3032 RMK A01 T00141070  RH  053%=      5-min Rain = 0
KPD3 011333Z 01006KT 01/M07 A3033 RMK A01 T00141070  RH  053%=      5-min Rain = 0
KPD3 011334Z 00006KT 01/M07 A3033 RMK A01 T00141070  RH  054%=      5-min Rain = 0
KPD3 011335Z 00006KT 01/M07 A3033 RMK A01 T00141070  RH  054%=      5-min Rain = 0
KPD3 011336Z 00006KT 01/M07 A3033 RMK A01 T00141070  RH  054%=      5-min Rain = 0
KPD3 011337Z 01005KT 01/M07 A3033 RMK A01 T00141070  RH  054%=      5-min Rain = 0
KPD3 011338Z 00006KT 01/M07 A3033 RMK A01 T00141069  RH  054%=      5-min Rain = 0
KPD3 011339Z 01006KT 02/M07 A3033 RMK A01 T00151069  RH  054%=      5-min Rain = 0
KPD3 011340Z 02005KT 02/M07 A3033 RMK A01 T00151070  RH  053%=      5-min Rain = 0
KPD3 011341Z 02006KT 02/M07 A3033 RMK A01 T00151069  RH  053%=      5-min Rain = 0
KPD3 011342Z 02005KT 02/M07 A3033 RMK A01 T00161069  RH  053%=      5-min Rain = 0
KPD3 011343Z 02005KT 02/M07 A3033 RMK A01 T00161069  RH  053%=      5-min Rain = 0
KPD3 011344Z 01006KT 02/M07 A3033 RMK A01 T00161068  RH  053%=      5-min Rain = 0
KPD3 011345Z 02005KT 02/M07 A3033 RMK A01 T00161069  RH  053%=      5-min Rain = 0
KPD3 011346Z 01005KT 02/M07 A3033 RMK A01 T00161069  RH  053%=      5-min Rain = 0
KPD3 011347Z 02004KT 02/M07 A3033 RMK A01 T00171068  RH  053%=      5-min Rain = 0
KPD3 011348Z 02005KT 02/M07 A3033 RMK A01 T00171068  RH  053%=      5-min Rain = 0
KPD3 011349Z 01005KT 02/M07 A3033 RMK A01 T00171068  RH  053%=      5-min Rain = 0
KPD3 011350Z 02004KT 02/M07 A3033 RMK A01 T00171068  RH  053%=      5-min Rain = 0
KPD3 011351Z 01005KT 02/M07 A3033 RMK A01 T00171067  RH  054%=      5-min Rain = 0
KPD3 011352Z 02005KT 02/M07 A3033 RMK A01 T00171068  RH  053%=      5-min Rain = 0
KPD3 011353Z 01004KT 02/M07 A3033 RMK A01 T00171068  RH  053%=      5-min Rain = 0
KPD3 011354Z 01004KT 02/M07 A3033 RMK A01 T00171068  RH  054%=      5-min Rain = 0
KPD3 011355Z 01006KT 02/M07 A3034 RMK A01 T00171068  RH  053%=      5-min Rain = 0
KPD3 011356Z 00005KT 02/M07 A3034 RMK A01 T00171068  RH  053%=      5-min Rain = 0
KPD3 011357Z 01006KT 02/M07 A3034 RMK A01 T00171068  RH  053%=      5-min Rain = 0
KPD3 011358Z 00005KT 02/M07 A3034 RMK A01 T00171067  RH  053%=      5-min Rain = 0
KPD3 011359Z 36005KT 02/M07 A3034 RMK A01 T00171067  RH  053%=      5-min Rain = 0
KPD3 011400Z 35005KT 02/M07 A3034 RMK A01 T00171067  RH  053%=      5-min Rain = 0
KPD3 011401Z 35004KT 02/M07 A3034 RMK A01 T00171067  RH  053%=      5-min Rain = 0
KPD3 011402Z 35005KT 02/M07 A3034 RMK A01 T00171067  RH  053%=      5-min Rain = 0
KPD3 011403Z 36006KT 02/M07 A3035 RMK A01 T00181068  RH  053%=      5-min Rain = 0
KPD3 011404Z 35005KT 02/M07 A3035 RMK A01 T00181068  RH  053%=      5-min Rain = 0
KPD3 011405Z 36004KT 02/M07 A3035 RMK A01 T00191068  RH  053%=      5-min Rain = 0
KPD3 011406Z 35006KT 02/M07 A3035 RMK A01 T00191066  RH  053%=      5-min Rain = 0
KPD3 011407Z 35006KT 02/M07 A3035 RMK A01 T00191067  RH  053%=      5-min Rain = 0
KPD3 011408Z 35006KT 02/M07 A3035 RMK A01 T00201068  RH  052%=      5-min Rain = 0
KPD3 011409Z 35007KT 02/M07 A3035 RMK A01 T00201068  RH  052%=      5-min Rain = 0
KPD3 011410Z 35005KT 02/M07 A3035 RMK A01 T00201068  RH  052%=      5-min Rain = 0
KPD3 011411Z 35006KT 02/M07 A3035 RMK A01 T00211067  RH  052%=      5-min Rain = 0
KPD3 011412Z 35006KT 02/M07 A3035 RMK A01 T00211067  RH  052%=      5-min Rain = 0
KPD3 011413Z 35006KT 02/M07 A3035 RMK A01 T00211067  RH  052%=      5-min Rain = 0
KPD3 011414Z 35007KT 02/M07 A3035 RMK A01 T00221067  RH  052%=      5-min Rain = 0
KPD3 011415Z 35007KT 02/M07 A3035 RMK A01 T00221068  RH  052%=      5-min Rain = 0
KPD3 011416Z 35006KT 02/M07 A3035 RMK A01 T00221067  RH  052%=      5-min Rain = 0
KPD3 011417Z 35005KT 02/M07 A3035 RMK A01 T00231066  RH  052%=      5-min Rain = 0
KPD3 011418Z 35007KT 02/M07 A3035 RMK A01 T00241067  RH  051%=      5-min Rain = 0
KPD3 011419Z 36007KT 03/M07 A3035 RMK A01 T00251067  RH  051%=      5-min Rain = 0
KPD3 011420Z 35008KT 03/M07 A3035 RMK A01 T00271067  RH  050%=      5-min Rain = 0
KPD3 011421Z 35008KT 03/M07 A3035 RMK A01 T00281068  RH  049%=      5-min Rain = 0
KPD3 011422Z 35008KT 03/M07 A3036 RMK A01 T00281068  RH  049%=      5-min Rain = 0
KPD3 011423Z 36008KT 03/M07 A3035 RMK A01 T00291068  RH  049%=      5-min Rain = 0
KPD3 011424Z 35008KT 03/M07 A3035 RMK A01 T00301068  RH  048%=      5-min Rain = 0
KPD3 011425Z 35009KT 03/M07 A3035 RMK A01 T00311069  RH  048%=      5-min Rain = 0
KPD3 011426Z 01007KT 03/M07 A3035 RMK A01 T00311070  RH  047%=      5-min Rain = 0
KPD3 011427Z 35008KT 03/M07 A3036 RMK A01 T00321069  RH  047%=      5-min Rain = 0
KPD3 011428Z 35009KT 03/M07 A3036 RMK A01 T00321070  RH  047%=      5-min Rain = 0
KPD3 011429Z 01008KT 03/M07 A3036 RMK A01 T00321071  RH  047%=      5-min Rain = 0
KPD3 011430Z 00009KT 03/M07 A3036 RMK A01 T00331071  RH  047%=      5-min Rain = 0
KPD3 011431Z 01009KT 03/M07 A3036 RMK A01 T00331072  RH  046%=      5-min Rain = 0
KPD3 011432Z 01009KT 03/M07 A3036 RMK A01 T00341072  RH  046%=      5-min Rain = 0
KPD3 011433Z 01008KT 04/M07 A3036 RMK A01 T00351072  RH  046%=      5-min Rain = 0
KPD3 011434Z 36008KT 04/M07 A3036 RMK A01 T00361071  RH  045%=      5-min Rain = 0
KPD3 011435Z 00007KT 04/M07 A3036 RMK A01 T00371072  RH  045%=      5-min Rain = 0
KPD3 011436Z 36008KT 04/M07 A3036 RMK A01 T00381070  RH  045%=      5-min Rain = 0
KPD3 011437Z 00008KT 04/M07 A3036 RMK A01 T00381072  RH  044%=      5-min Rain = 0
KPD3 011438Z 02007KT 04/M07 A3037 RMK A01 T00381074  RH  044%=      5-min Rain = 0
KPD3 011439Z 02008KT 04/M07 A3037 RMK A01 T00391072  RH  044%=      5-min Rain = 0
KPD3 011440Z 02008KT 04/M07 A3037 RMK A01 T00391072  RH  044%=      5-min Rain = 0
KPD3 011441Z 01008KT 04/M07 A3037 RMK A01 T00401072  RH  044%=      5-min Rain = 0
KPD3 011442Z 00008KT 04/M07 A3037 RMK A01 T00411072  RH  044%=      5-min Rain = 0
KPD3 011443Z 00007KT 04/M07 A3037 RMK A01 T00411072  RH  043%=      5-min Rain = 0
KPD3 011444Z 02009KT 04/M07 A3037 RMK A01 T00411073  RH  043%=      5-min Rain = 0
KPD3 011445Z 01009KT 04/M07 A3037 RMK A01 T00411072  RH  043%=      5-min Rain = 0
KPD3 011446Z 01007KT 04/M08 A3037 RMK A01 T00421075  RH  043%=      5-min Rain = 0
KPD3 011447Z 01008KT 04/M08 A3037 RMK A01 T00411075  RH  043%=      5-min Rain = 0
KPD3 011448Z 00007KT 04/M07 A3037 RMK A01 T00411073  RH  043%=      5-min Rain = 0
KPD3 011449Z 00007KT 04/M07 A3037 RMK A01 T00421073  RH  043%=      5-min Rain = 0
KPD3 011450Z 00006KT 04/M07 A3037 RMK A01 T00421074  RH  043%=      5-min Rain = 0
KPD3 011451Z 01007KT 04/M07 A3037 RMK A01 T00421073  RH  043%=      5-min Rain = 0
KPD3 011452Z 01005KT 04/M07 A3037 RMK A01 T00431073  RH  043%=      5-min Rain = 0
KPD3 011453Z 35008KT 04/M07 A3037 RMK A01 T00441072  RH  042%=      5-min Rain = 0
KPD3 011454Z 00008KT 05/M07 A3037 RMK A01 T00451073  RH  042%=      5-min Rain = 0
KPD3 011455Z 00008KT 04/M07 A3037 RMK A01 T00441073  RH  042%=      5-min Rain = 0
KPD3 011456Z 01009KT 05/M07 A3037 RMK A01 T00461072  RH  042%=      5-min Rain = 0
KPD3 011457Z 01008KT 05/M07 A3037 RMK A01 T00461074  RH  041%=      5-min Rain = 0
KPD3 011458Z 01009KT 04/M08 A3037 RMK A01 T00441075  RH  042%=      5-min Rain = 0
KPD3 011459Z 01007KT 04/M08 A3037 RMK A01 T00431075  RH  042%=      5-min Rain = 0
KPD3 011500Z 01008KT 04/M07 A3037 RMK A01 T00431074  RH  042%=      5-min Rain = 0
KPD3 011501Z 02008KT 04/M07 A3037 RMK A01 T00431074  RH  042%=      5-min Rain = 0
KPD3 011502Z 00008KT 04/M08 A3037 RMK A01 T00441075  RH  042%=      5-min Rain = 0
KPD3 011503Z 01008KT 04/M08 A3037 RMK A01 T00441075  RH  042%=      5-min Rain = 0
KPD3 011504Z 01008KT 04/M08 A3037 RMK A01 T00431076  RH  042%=      5-min Rain = 0
KPD3 011505Z 36007KT 04/M08 A3037 RMK A01 T00431075  RH  042%=      5-min Rain = 0
KPD3 011506Z 01007KT 04/M08 A3037 RMK A01 T00431075  RH  042%=      5-min Rain = 0
KPD3 011507Z 02007KT 04/M07 A3037 RMK A01 T00431074  RH  042%=      5-min Rain = 0
KPD3 011508Z 01007KT 04/M08 A3038 RMK A01 T00441075  RH  042%=      5-min Rain = 0
KPD3 011509Z 01007KT 05/M08 A3038 RMK A01 T00451075  RH  041%=      5-min Rain = 0
KPD3 011510Z 01007KT 04/M08 A3038 RMK A01 T00441076  RH  042%=      5-min Rain = 0
KPD3 011511Z 01008KT 04/M07 A3038 RMK A01 T00441074  RH  042%=      5-min Rain = 0
KPD3 011512Z 01007KT 05/M07 A3038 RMK A01 T00451074  RH  042%=      5-min Rain = 0
KPD3 011513Z 36007KT 05/M07 A3038 RMK A01 T00451073  RH  042%=      5-min Rain = 0
KPD3 011514Z 01007KT 05/M07 A3038 RMK A01 T00451072  RH  042%=      5-min Rain = 0
KPD3 011515Z 00009KT 05/M07 A3038 RMK A01 T00461072  RH  042%=      5-min Rain = 0
KPD3 011516Z 00008KT 05/M07 A3038 RMK A01 T00461073  RH  042%=      5-min Rain = 0
KPD3 011517Z 01008KT 05/M07 A3038 RMK A01 T00461074  RH  042%=      5-min Rain = 0
KPD3 011518Z 01007KT 05/M07 A3038 RMK A01 T00451074  RH  042%=      5-min Rain = 0
KPD3 011519Z 01007KT 05/M08 A3037 RMK A01 T00451075  RH  041%=      5-min Rain = 0
KPD3 011520Z 02005KT 05/M07 A3037 RMK A01 T00451073  RH  042%=      5-min Rain = 0
KPD3 011521Z 01007KT 05/M07 A3038 RMK A01 T00471071  RH  042%=      5-min Rain = 0
KPD3 011522Z 01008KT 05/M07 A3038 RMK A01 T00481070  RH  042%=      5-min Rain = 0
KPD3 011523Z 00006KT 05/M07 A3038 RMK A01 T00491072  RH  041%=      5-min Rain = 0
KPD3 011524Z 01008KT 05/M07 A3038 RMK A01 T00481072  RH  041%=      5-min Rain = 0
KPD3 011525Z 02006KT 05/M07 A3038 RMK A01 T00481074  RH  041%=      5-min Rain = 0
KPD3 011526Z 01008KT 05/M07 A3038 RMK A01 T00471073  RH  041%=      5-min Rain = 0
KPD3 011527Z 00008KT 05/M07 A3038 RMK A01 T00481073  RH  041%=      5-min Rain = 0
KPD3 011528Z 00006KT 05/M08 A3038 RMK A01 T00471075  RH  041%=      5-min Rain = 0
KPD3 011529Z 01009KT 05/M07 A3038 RMK A01 T00471074  RH  041%=      5-min Rain = 0
KPD3 011530Z 02008KT 05/M07 A3038 RMK A01 T00471074  RH  041%=      5-min Rain = 0
KPD3 011531Z 36008KT 05/M07 A3038 RMK A01 T00461074  RH  041%=      5-min Rain = 0
KPD3 011532Z 01008KT 05/M07 A3038 RMK A01 T00461074  RH  041%=      5-min Rain = 0
KPD3 011533Z 36008KT 05/M07 A3038 RMK A01 T00461074  RH  041%=      5-min Rain = 0
KPD3 011534Z 00008KT 05/M07 A3038 RMK A01 T00461074  RH  041%=      5-min Rain = 0
KPD3 011535Z 36008KT 05/M07 A3038 RMK A01 T00461073  RH  042%=      5-min Rain = 0
KPD3 011536Z 36010KT 05/M07 A3038 RMK A01 T00461073  RH  042%=      5-min Rain = 0
KPD3 011537Z 01007KT 05/M07 A3038 RMK A01 T00461073  RH  042%=      5-min Rain = 0
KPD3 011538Z 00007KT 05/M07 A3038 RMK A01 T00461073  RH  042%=      5-min Rain = 0
KPD3 011539Z 36008KT 05/M08 A3038 RMK A01 T00461075  RH  041%=      5-min Rain = 0
KPD3 011540Z 36009KT 05/M08 A3038 RMK A01 T00461075  RH  041%=      5-min Rain = 0
KPD3 011541Z 35008KT 05/M08 A3038 RMK A01 T00461075  RH  041%=      5-min Rain = 0
KPD3 011542Z 36010KT 05/M08 A3038 RMK A01 T00461075  RH  041%=      5-min Rain = 0
KPD3 011543Z 35010KT 05/M07 A3038 RMK A01 T00461074  RH  041%=      5-min Rain = 0
KPD3 011544Z 35009KT 05/M07 A3038 RMK A01 T00461074  RH  042%=      5-min Rain = 0
KPD3 011545Z 36008KT 05/M07 A3038 RMK A01 T00461074  RH  042%=      5-min Rain = 0
KPD3 011546Z 00010KT 05/M07 A3038 RMK A01 T00461073  RH  042%=      5-min Rain = 0
KPD3 011547Z 35009KT 05/M07 A3038 RMK A01 T00461073  RH  042%=      5-min Rain = 0
KPD3 011548Z 36008KT 05/M07 A3038 RMK A01 T00461072  RH  042%=      5-min Rain = 0
KPD3 011549Z 36009KT 05/M07 A3038 RMK A01 T00471072  RH  042%=      5-min Rain = 0
KPD3 011550Z 36009KT 05/M07 A3038 RMK A01 T00471073  RH  041%=      5-min Rain = 0
KPD3 011551Z 00009KT 05/M07 A3038 RMK A01 T00471073  RH  042%=      5-min Rain = 0
KPD3 011552Z 00009KT 05/M07 A3038 RMK A01 T00461074  RH  041%=      5-min Rain = 0
KPD3 011553Z 01007KT 05/M07 A3038 RMK A01 T00471073  RH  041%=      5-min Rain = 0
KPD3 011554Z 00009KT 05/M07 A3038 RMK A01 T00481072  RH  042%=      5-min Rain = 0
KPD3 011555Z 35011KT 05/M07 A3038 RMK A01 T00481073  RH  041%=      5-min Rain = 0
KPD3 011556Z 36011KT 05/M08 A3038 RMK A01 T00481075  RH  041%=      5-min Rain = 0
KPD3 011557Z 00009KT 05/M08 A3038 RMK A01 T00481075  RH  041%=      5-min Rain = 0
KPD3 011558Z 00010KT 05/M07 A3038 RMK A01 T00481074  RH  041%=      5-min Rain = 0
KPD3 011559Z 36009KT 05/M07 A3038 RMK A01 T00491074  RH  041%=      5-min Rain = 0
KPD3 011600Z 36008KT 05/M08 A3038 RMK A01 T00491075  RH  040%=      5-min Rain = 0
KPD3 011601Z 35008KT 05/M08 A3038 RMK A01 T00491075  RH  040%=      5-min Rain = 0
KPD3 011602Z 36009KT 05/M08 A3038 RMK A01 T00491075  RH  040%=      5-min Rain = 0
KPD3 011603Z 00009KT 05/M08 A3038 RMK A01 T00501075  RH  040%=      5-min Rain = 0
KPD3 011604Z 35009KT 05/M07 A3038 RMK A01 T00511073  RH  040%=      5-min Rain = 0
KPD3 011605Z 35010KT 05/M08 A3038 RMK A01 T00521075  RH  040%=      5-min Rain = 0
KPD3 011606Z 00008KT 05/M08 A3038 RMK A01 T00521075  RH  040%=      5-min Rain = 0
KPD3 011607Z 01008KT 05/M07 A3038 RMK A01 T00531074  RH  039%=      5-min Rain = 0
KPD3 011608Z 36009KT 05/M08 A3038 RMK A01 T00541075  RH  039%=      5-min Rain = 0
KPD3 011609Z 00010KT 05/M08 A3038 RMK A01 T00541075  RH  039%=      5-min Rain = 0
KPD3 011610Z 36010KT 06/M08 A3038 RMK A01 T00551075  RH  039%=      5-min Rain = 0
KPD3 011611Z 00008KT 06/M08 A3038 RMK A01 T00561075  RH  038%=      5-min Rain = 0
KPD3 011612Z 36009KT 06/M08 A3038 RMK A01 T00571076  RH  038%=      5-min Rain = 0
KPD3 011613Z 01006KT 06/M08 A3038 RMK A01 T00571077  RH  037%=      5-min Rain = 0
KPD3 011614Z 00008KT 06/M08 A3038 RMK A01 T00581076  RH  038%=      5-min Rain = 0
KPD3 011615Z 35009KT 06/M08 A3038 RMK A01 T00591075  RH  038%=      5-min Rain = 0
KPD3 011616Z 36011KT 06/M08 A3038 RMK A01 T00601075  RH  037%=      5-min Rain = 0
KPD3 011617Z 01009KT 06/M08 A3038 RMK A01 T00591076  RH  037%=      5-min Rain = 0
KPD3 011618Z 01009KT 06/M08 A3038 RMK A01 T00591077  RH  037%=      5-min Rain = 0
KPD3 011619Z 36010KT 06/M08 A3038 RMK A01 T00581078  RH  037%=      5-min Rain = 0
KPD3 011620Z 36010KT 06/M08 A3038 RMK A01 T00581077  RH  037%=      5-min Rain = 0
KPD3 011621Z 00009KT 06/M08 A3038 RMK A01 T00581077  RH  037%=      5-min Rain = 0
KPD3 011622Z 01010KT 06/M08 A3038 RMK A01 T00591075  RH  037%=      5-min Rain = 0
KPD3 011623Z 01010KT 06/M08 A3038 RMK A01 T00601077  RH  037%=      5-min Rain = 0
KPD3 011624Z 00009KT 06/M08 A3038 RMK A01 T00591077  RH  037%=      5-min Rain = 0
KPD3 011625Z 01009KT 06/M07 A3038 RMK A01 T00611074  RH  037%=      5-min Rain = 0
KPD3 011626Z 00008KT 06/M08 A3038 RMK A01 T00621076  RH  037%=      5-min Rain = 0
KPD3 011627Z 00009KT 06/M08 A3038 RMK A01 T00621076  RH  036%=      5-min Rain = 0
KPD3 011628Z 36011KT 06/M08 A3038 RMK A01 T00631075  RH  036%=      5-min Rain = 0
KPD3 011629Z 36011KT 06/M08 A3038 RMK A01 T00641078  RH  035%=      5-min Rain = 0
KPD3 011630Z 01011KT 06/M08 A3038 RMK A01 T00631078  RH  036%=      5-min Rain = 0
KPD3 011631Z 01010KT 06/M08 A3038 RMK A01 T00641078  RH  036%=      5-min Rain = 0
KPD3 011632Z 36011KT 06/M08 A3038 RMK A01 T00641077  RH  036%=      5-min Rain = 0
KPD3 011633Z 00010KT 06/M08 A3038 RMK A01 T00641077  RH  036%=      5-min Rain = 0
KPD3 011634Z 00012KT 06/M08 A3038 RMK A01 T00641079  RH  035%=      5-min Rain = 0
KPD3 011635Z 36009KT 06/M08 A3038 RMK A01 T00631079  RH  035%=      5-min Rain = 0
KPD3 011636Z 01009KT 07/M08 A3038 RMK A01 T00651077  RH  035%=      5-min Rain = 0
KPD3 011637Z 01009KT 07/M08 A3038 RMK A01 T00671080  RH  034%=      5-min Rain = 0
KPD3 011638Z 35008KT 07/M08 A3038 RMK A01 T00661081  RH  034%=      5-min Rain = 0
KPD3 011639Z 01010KT 07/M08 A3038 RMK A01 T00671076  RH  035%=      5-min Rain = 0
KPD3 011640Z 01010KT 07/M08 A3038 RMK A01 T00691079  RH  034%=      5-min Rain = 0
KPD3 011641Z 00011KT 07/M08 A3038 RMK A01 T00691083  RH  033%=      5-min Rain = 0
KPD3 011642Z 00010KT 07/M08 A3038 RMK A01 T00691083  RH  033%=      5-min Rain = 0
KPD3 011643Z 01012KT 07/M08 A3038 RMK A01 T00691083  RH  033%=      5-min Rain = 0
KPD3 011644Z 01010KT 07/M09 A3038 RMK A01 T00701085  RH  032%=      5-min Rain = 0
KPD3 011645Z 00011KT 07/M09 A3039 RMK A01 T00711085  RH  032%=      5-min Rain = 0
KPD3 011646Z 01009KT 07/M09 A3039 RMK A01 T00721088  RH  031%=      5-min Rain = 0
KPD3 011647Z 01008KT 07/M08 A3039 RMK A01 T00721084  RH  032%=      5-min Rain = 0
KPD3 011648Z 01010KT 08/M08 A3039 RMK A01 T00751082  RH  032%=      5-min Rain = 0
KPD3 011649Z 01010KT 08/M09 A3039 RMK A01 T00761085  RH  031%=      5-min Rain = 0
KPD3 011650Z 02012KT 08/M09 A3039 RMK A01 T00761087  RH  030%=      5-min Rain = 0
KPD3 011651Z 02010KT 08/M09 A3039 RMK A01 T00761089  RH  030%=      5-min Rain = 0
KPD3 011652Z 02010KT 08/M09 A3039 RMK A01 T00761088  RH  030%=      5-min Rain = 0
KPD3 011653Z 01011KT 08/M09 A3039 RMK A01 T00771087  RH  030%=      5-min Rain = 0
KPD3 011654Z 02009KT 08/M09 A3039 RMK A01 T00781089  RH  030%=      5-min Rain = 0
KPD3 011655Z 36009KT 08/M09 A3039 RMK A01 T00781089  RH  030%=      5-min Rain = 0
KPD3 011656Z 36010KT 08/M09 A3039 RMK A01 T00801089  RH  029%=      5-min Rain = 0
KPD3 011657Z 02010KT 08/M09 A3039 RMK A01 T00831088  RH  029%=      5-min Rain = 0
KPD3 011658Z 03008G14KT 09/M09 A3039 RMK A01 T00861090  RH  028%=      5-min Rain = 0
KPD3 011659Z 03010KT 09/M09 A3039 RMK A01 T00901089  RH  027%=      5-min Rain = 0
KPD3 011700Z 04008KT 09/M09 A3039 RMK A01 T00921093  RH  026%=      5-min Rain = 0
KPD3 011701Z 03010KT 09/M10 A3039 RMK A01 T00881097  RH  026%=      5-min Rain = 0
KPD3 011702Z 04011KT 09/M10 A3039 RMK A01 T00891098  RH  026%=      5-min Rain = 0
KPD3 011703Z 04011KT 09/M10 A3039 RMK A01 T00911101  RH  025%=      5-min Rain = 0
KPD3 011704Z 03012KT 09/M10 A3039 RMK A01 T00901103  RH  024%=      5-min Rain = 0
KPD3 011705Z 02011KT 09/M10 A3039 RMK A01 T00891102  RH  025%=      5-min Rain = 0
KPD3 011706Z 03009KT 09/M10 A3039 RMK A01 T00921099  RH  025%=      5-min Rain = 0
KPD3 011707Z 01010KT 10/M10 A3039 RMK A01 T00961096  RH  025%=      5-min Rain = 0
KPD3 011708Z 01011KT 10/M10 A3039 RMK A01 T00971102  RH  023%=      5-min Rain = 0
KPD3 011709Z 02011KT 10/M10 A304 RMK A01 T00971102  RH  023%=      5-min Rain = 0
KPD3 011710Z 02011KT 10/M11 A304 RMK A01 T00971105  RH  023%=      5-min Rain = 0
KPD3 011711Z 02010KT 09/M11 A304 RMK A01 T00941105  RH  023%=      5-min Rain = 0
KPD3 011712Z 02007KT 09/M11 A304 RMK A01 T00921107  RH  023%=      5-min Rain = 0
KPD3 011713Z 03008KT 09/M10 A304 RMK A01 T00921103  RH  024%=      5-min Rain = 0
KPD3 011714Z 03012KT 10/M10 A304 RMK A01 T00961103  RH  024%=      5-min Rain = 0
KPD3 011715Z 05009KT 10/M10 A304 RMK A01 T00971104  RH  023%=      5-min Rain = 0
KPD3 011716Z 05010KT 10/M11 A304 RMK A01 T00961105  RH  023%=      5-min Rain = 0
KPD3 011717Z 03008KT 10/M11 A304 RMK A01 T00961107  RH  023%=      5-min Rain = 0
KPD3 011718Z 04009KT 10/M10 A304 RMK A01 T00991100  RH  024%=      5-min Rain = 0
KPD3 011719Z 03008G15KT 10/M10 A304 RMK A01 T01001104  RH  023%=      5-min Rain = 0
KPD3 011720Z 03011KT 10/M10 A304 RMK A01 T01001103  RH  023%=      5-min Rain = 0
KPD3 011721Z 03009KT 10/M11 A304 RMK A01 T01011105  RH  022%=      5-min Rain = 0
KPD3 011722Z 05009KT 10/M11 A304 RMK A01 T01031105  RH  022%=      5-min Rain = 0
KPD3 011723Z 04010KT 10/M10 A304 RMK A01 T01021104  RH  022%=      5-min Rain = 0
KPD3 011724Z 03011KT 10/M11 A304 RMK A01 T01011105  RH  022%=      5-min Rain = 0
KPD3 011725Z 05010KT 10/M11 A304 RMK A01 T00991109  RH  022%=      5-min Rain = 0
KPD3 011726Z 05010KT 10/M11 A304 RMK A01 T00981107  RH  022%=      5-min Rain = 0
KPD3 011727Z 05011KT 10/M11 A304 RMK A01 T00981107  RH  022%=      5-min Rain = 0
KPD3 011728Z 04011KT 10/M11 A304 RMK A01 T01011108  RH  022%=      5-min Rain = 0
KPD3 011729Z 02008KT 10/M11 A304 RMK A01 T01001111  RH  021%=      5-min Rain = 0
KPD3 011730Z 04012KT 10/M11 A3041 RMK A01 T01001110  RH  022%=      5-min Rain = 0
KPD3 011731Z 04012KT 10/M11 A3041 RMK A01 T01001112  RH  021%=      5-min Rain = 0
KPD3 011732Z 05012KT 10/M11 A3041 RMK A01 T00991113  RH  021%=      5-min Rain = 0
KPD3 011733Z 04011KT 10/M12 A3041 RMK A01 T00971115  RH  021%=      5-min Rain = 0
KPD3 011734Z 04013KT 10/M11 A3041 RMK A01 T00981113  RH  021%=      5-min Rain = 0
KPD3 011735Z 04011KT 10/M11 A3041 RMK A01 T00991112  RH  021%=      5-min Rain = 0
KPD3 011736Z 04012KT 10/M11 A3041 RMK A01 T00991111  RH  022%=      5-min Rain = 0
KPD3 011737Z 04011KT 10/M11 A3041 RMK A01 T00991112  RH  021%=      5-min Rain = 0
KPD3 011738Z 03009KT 10/M11 A3041 RMK A01 T00991112  RH  021%=      5-min Rain = 0
KPD3 011739Z 02010KT 10/M11 A3041 RMK A01 T00991113  RH  021%=      5-min Rain = 0
KPD3 011740Z 03009KT 10/M11 A3041 RMK A01 T00991110  RH  022%=      5-min Rain = 0
KPD3 011741Z 04013KT 10/M11 A3041 RMK A01 T01021110  RH  021%=      5-min Rain = 0
KPD3 011742Z 05013KT 10/M12 A3041 RMK A01 T01031116  RH  020%=      5-min Rain = 0
KPD3 011743Z 06010KT 10/M12 A3041 RMK A01 T01021115  RH  020%=      5-min Rain = 0
KPD3 011744Z 05014KT 10/M12 A3041 RMK A01 T01011116  RH  020%=      5-min Rain = 0
KPD3 011745Z 04013KT 10/M12 A3041 RMK A01 T01021115  RH  020%=      5-min Rain = 0
KPD3 011746Z 04011KT 10/M12 A3041 RMK A01 T01021115  RH  020%=      5-min Rain = 0
KPD3 011747Z 04010KT 10/M12 A3041 RMK A01 T01021116  RH  020%=      5-min Rain = 0
KPD3 011748Z 05010KT 10/M12 A3041 RMK A01 T01021116  RH  020%=      5-min Rain = 0
KPD3 011749Z 05008KT 10/M12 A3041 RMK A01 T01001116  RH  021%=      5-min Rain = 0
KPD3 011750Z 04011KT 10/M11 A3041 RMK A01 T01001113  RH  021%=      5-min Rain = 0
KPD3 011751Z 03012KT 10/M11 A304 RMK A01 T01021113  RH  021%=      5-min Rain = 0
KPD3 011752Z 02013KT 10/M12 A304 RMK A01 T01021115  RH  021%=      5-min Rain = 0
KPD3 011753Z 02012KT 10/M11 A304 RMK A01 T01031114  RH  021%=      5-min Rain = 0
KPD3 011754Z 02013KT 11/M11 A304 RMK A01 T01061114  RH  020%=      5-min Rain = 0
KPD3 011755Z 02013KT 11/M12 A304 RMK A01 T01091117  RH  019%=      5-min Rain = 0
KPD3 011756Z 04012KT 11/M11 A304 RMK A01 T01101114  RH  020%=      5-min Rain = 0
KPD3 011757Z 04011KT 11/M11 A304 RMK A01 T01121114  RH  019%=      5-min Rain = 0
KPD3 011758Z 05013KT 11/M12 A304 RMK A01 T01111118  RH  019%=      5-min Rain = 0
KPD3 011759Z 04012KT 11/M12 A304 RMK A01 T01091122  RH  018%=      5-min Rain = 0
KPD3 011800Z 02015G20KT 11/M12 A304 RMK A01 T01081121  RH  019%=      5-min Rain = 0
KPD3 011801Z 03011G17KT 11/M12 A304 RMK A01 T01081122  RH  019%=      5-min Rain = 0
KPD3 011802Z 04009KT 11/M12 A304 RMK A01 T01061120  RH  019%=      5-min Rain = 0
KPD3 011803Z 02009KT 11/M12 A304 RMK A01 T01071119  RH  019%=      5-min Rain = 0
KPD3 011804Z 04014G20KT 11/M11 A304 RMK A01 T01091114  RH  020%=      5-min Rain = 0
KPD3 011805Z 06010KT 12/M12 A304 RMK A01 T01151117  RH  018%=      5-min Rain = 0
KPD3 011806Z 05013KT 12/M12 A304 RMK A01 T01151120  RH  018%=      5-min Rain = 0
KPD3 011807Z 04010KT 11/M12 A304 RMK A01 T01141119  RH  018%=      5-min Rain = 0
KPD3 011808Z 05010G17KT 12/M12 A304 RMK A01 T01161120  RH  018%=      5-min Rain = 0
KPD3 011809Z 05017KT 12/M12 A304 RMK A01 T01181122  RH  017%=      5-min Rain = 0
KPD3 011810Z 04013KT 12/M13 A304 RMK A01 T01151130  RH  017%=      5-min Rain = 0
KPD3 011811Z 04013KT 11/M13 A304 RMK A01 T01101132  RH  017%=      5-min Rain = 0
KPD3 011812Z 03013KT 11/M13 A304 RMK A01 T01101133  RH  017%=      5-min Rain = 0
KPD3 011813Z 03013KT 11/M13 A304 RMK A01 T01121130  RH  017%=      5-min Rain = 0
KPD3 011814Z 04012KT 11/M13 A304 RMK A01 T01121132  RH  017%=      5-min Rain = 0
KPD3 011815Z 04011KT 11/M14 A304 RMK A01 T01071136  RH  017%=      5-min Rain = 0
KPD3 011816Z 02014KT 11/M13 A304 RMK A01 T01081126  RH  018%=      5-min Rain = 0
KPD3 011817Z 02014KT 11/M12 A304 RMK A01 T01101122  RH  018%=      5-min Rain = 0
KPD3 011818Z 02011KT 11/M12 A304 RMK A01 T01111121  RH  018%=      5-min Rain = 0
KPD3 011819Z 04008KT 11/M12 A304 RMK A01 T01111120  RH  019%=      5-min Rain = 0
KPD3 011820Z 02012G17KT 11/M12 A304 RMK A01 T01131122  RH  018%=      5-min Rain = 0
KPD3 011821Z 02012KT 11/M13 A304 RMK A01 T01141128  RH  017%=      5-min Rain = 0
KPD3 011822Z 05016KT 11/M13 A304 RMK A01 T01141130  RH  017%=      5-min Rain = 0
KPD3 011823Z 05014KT 11/M13 A304 RMK A01 T01131131  RH  017%=      5-min Rain = 0
KPD3 011824Z 04015KT 11/M13 A304 RMK A01 T01131131  RH  017%=      5-min Rain = 0
KPD3 011825Z 04015KT 11/M13 A304 RMK A01 T01131129  RH  017%=      5-min Rain = 0
KPD3 011826Z 04014KT 11/M13 A304 RMK A01 T01121128  RH  017%=      5-min Rain = 0
KPD3 011827Z 03012KT 11/M13 A304 RMK A01 T01101128  RH  017%=      5-min Rain = 0
KPD3 011828Z 04013KT 11/M13 A304 RMK A01 T01121129  RH  017%=      5-min Rain = 0
KPD3 011829Z 04011KT 11/M13 A304 RMK A01 T01131126  RH  017%=      5-min Rain = 0
KPD3 011830Z 05010KT 11/M13 A304 RMK A01 T01141125  RH  017%=      5-min Rain = 0
KPD3 011831Z 04006KT 11/M13 A304 RMK A01 T01121125  RH  018%=      5-min Rain = 0
KPD3 011832Z 02010G17KT 11/M13 A304 RMK A01 T01101126  RH  018%=      5-min Rain = 0
KPD3 011833Z 02013KT 11/M13 A304 RMK A01 T01121125  RH  018%=      5-min Rain = 0
KPD3 011834Z 03011KT 11/M13 A3039 RMK A01 T01131126  RH  017%=      5-min Rain = 0
KPD3 011835Z 02012KT 11/M13 A3039 RMK A01 T01131127  RH  017%=      5-min Rain = 0
KPD3 011836Z 03009KT 12/M13 A3039 RMK A01 T01151127  RH  017%=      5-min Rain = 0
KPD3 011837Z 05011G16KT 12/M12 A3039 RMK A01 T01171123  RH  017%=      5-min Rain = 0
KPD3 011838Z 04012KT 12/M12 A3039 RMK A01 T01221121  RH  017%=      5-min Rain = 0
KPD3 011839Z 04012KT 12/M12 A3039 RMK A01 T01231123  RH  017%=      5-min Rain = 0
KPD3 011840Z 05014KT 12/M12 A3039 RMK A01 T01241123  RH  017%=      5-min Rain = 0
KPD3 011841Z 06015KT 12/M13 A3039 RMK A01 T01231127  RH  016%=      5-min Rain = 0
KPD3 011842Z 04012KT 12/M13 A3039 RMK A01 T01191131  RH  016%=      5-min Rain = 0
KPD3 011843Z 06012KT 12/M13 A3039 RMK A01 T01161133  RH  016%=      5-min Rain = 0
KPD3 011844Z 07012KT 12/M14 A3039 RMK A01 T01171136  RH  016%=      5-min Rain = 0
KPD3 011845Z 06011KT 12/M14 A3039 RMK A01 T01191137  RH  015%=      5-min Rain = 0
KPD3 011846Z 07009KT 12/M13 A304 RMK A01 T01211131  RH  016%=      5-min Rain = 0
KPD3 011847Z 07013KT 13/M13 A3039 RMK A01 T01261128  RH  016%=      5-min Rain = 0
KPD3 011848Z 07015KT 12/M13 A3039 RMK A01 T01221131  RH  016%=      5-min Rain = 0
KPD3 011849Z 06014KT 12/M13 A3039 RMK A01 T01181132  RH  016%=      5-min Rain = 0
KPD3 011850Z 07014KT 12/M13 A3039 RMK A01 T01171129  RH  016%=      5-min Rain = 0
KPD3 011851Z 08013KT 12/M13 A3039 RMK A01 T01191134  RH  016%=      5-min Rain = 0
KPD3 011852Z 06010KT 12/M14 A3039 RMK A01 T01161138  RH  015%=      5-min Rain = 0
KPD3 011853Z 07008KT 11/M14 A3039 RMK A01 T01131137  RH  016%=      5-min Rain = 0
KPD3 011854Z 07010G18KT 12/M14 A3039 RMK A01 T01151135  RH  016%=      5-min Rain = 0
KPD3 011855Z 06015KT 12/M14 A3039 RMK A01 T01151137  RH  016%=      5-min Rain = 0
KPD3 011856Z 06010KT 11/M14 A3039 RMK A01 T01121141  RH  016%=      5-min Rain = 0
KPD3 011857Z 06011KT 11/M14 A3039 RMK A01 T01101140  RH  016%=      5-min Rain = 0
KPD3 011858Z 07013G20KT 11/M14 A3039 RMK A01 T01101136  RH  016%=      5-min Rain = 0
KPD3 011859Z 05017KT 11/M13 A3039 RMK A01 T01141129  RH  017%=      5-min Rain = 0
KPD3 011900Z 06014KT 11/M13 A3039 RMK A01 T01141128  RH  017%=      5-min Rain = 0
KPD3 011901Z 05015KT 11/M13 A3039 RMK A01 T01141130  RH  017%=      5-min Rain = 0
KPD3 011902Z 05012KT 11/M13 A3039 RMK A01 T01141133  RH  016%=      5-min Rain = 0
KPD3 011903Z 06013KT 12/M13 A3039 RMK A01 T01151133  RH  016%=      5-min Rain = 0
KPD3 011904Z 03013KT 11/M14 A3039 RMK A01 T01141135  RH  016%=      5-min Rain = 0
KPD3 011905Z 03013KT 12/M13 A3039 RMK A01 T01171131  RH  016%=      5-min Rain = 0
KPD3 011906Z 04012KT 12/M13 A3039 RMK A01 T01181133  RH  016%=      5-min Rain = 0
KPD3 011907Z 05011KT 12/M14 A3039 RMK A01 T01151135  RH  016%=      5-min Rain = 0
KPD3 011908Z 05007KT 11/M13 A3039 RMK A01 T01131134  RH  016%=      5-min Rain = 0
KPD3 011909Z 04005KT 11/M13 A3039 RMK A01 T01121133  RH  017%=      5-min Rain = 0
KPD3 011910Z 05005KT 11/M14 A3039 RMK A01 T01121137  RH  016%=      5-min Rain = 0
KPD3 011911Z 07007KT 11/M14 A3038 RMK A01 T01111135  RH  016%=      5-min Rain = 0
KPD3 011912Z 05012KT 11/M13 A3038 RMK A01 T01141131  RH  017%=      5-min Rain = 0
KPD3 011913Z 05011KT 12/M13 A3038 RMK A01 T01161130  RH  017%=      5-min Rain = 0
KPD3 011914Z 05011KT 12/M13 A3038 RMK A01 T01181130  RH  016%=      5-min Rain = 0
KPD3 011915Z 05011KT 12/M13 A3038 RMK A01 T01181130  RH  016%=      5-min Rain = 0
KPD3 011916Z 05011KT 12/M13 A3038 RMK A01 T01181130  RH  016%=      5-min Rain = 0
KPD3 011917Z 04010KT 12/M13 A3038 RMK A01 T01171131  RH  016%=      5-min Rain = 0
KPD3 011918Z 06005KT 11/M14 A3038 RMK A01 T01131136  RH  016%=      5-min Rain = 0
KPD3 011919Z 04008G14KT 11/M14 A3038 RMK A01 T01111136  RH  016%=      5-min Rain = 0
KPD3 011920Z 03008KT 11/M14 A3038 RMK A01 T01111135  RH  016%=      5-min Rain = 0
KPD3 011921Z 04005KT 11/M14 A3038 RMK A01 T01101137  RH  016%=      5-min Rain = 0
KPD3 011922Z 03006KT 11/M13 A3038 RMK A01 T01121133  RH  017%=      5-min Rain = 0
KPD3 011923Z 06012KT 12/M14 A3038 RMK A01 T01151138  RH  016%=      5-min Rain = 0
KPD3 011924Z 07010G15KT 11/M15 A3038 RMK A01 T01141149  RH  014%=      5-min Rain = 0
KPD3 011925Z 06015KT 11/M15 A3038 RMK A01 T01131146  RH  015%=      5-min Rain = 0
KPD3 011926Z 06013KT 11/M14 A3038 RMK A01 T01141143  RH  015%=      5-min Rain = 0
KPD3 011927Z 06007G12KT 11/M14 A3038 RMK A01 T01141144  RH  015%=      5-min Rain = 0
KPD3 011928Z 01010G15KT 11/M14 A3037 RMK A01 T01141141  RH  015%=      5-min Rain = 0
KPD3 011929Z 01008KT 12/M13 A3038 RMK A01 T01151131  RH  017%=      5-min Rain = 0
KPD3 011930Z 01007KT 12/M13 A3038 RMK A01 T01171125  RH  017%=      5-min Rain = 0
KPD3 011931Z 03006KT 12/M13 A3038 RMK A01 T01211125  RH  017%=      5-min Rain = 0
KPD3 011932Z 06009G14KT 12/M13 A3038 RMK A01 T01211128  RH  016%=      5-min Rain = 0
KPD3 011933Z 06013KT 12/M13 A3037 RMK A01 T01221132  RH  016%=      5-min Rain = 0
KPD3 011934Z 06015KT 12/M13 A3037 RMK A01 T01231131  RH  016%=      5-min Rain = 0
KPD3 011935Z 06014KT 12/M13 A3037 RMK A01 T01211134  RH  016%=      5-min Rain = 0
KPD3 011936Z 06011KT 12/M14 A3037 RMK A01 T01191136  RH  015%=      5-min Rain = 0
KPD3 011937Z 07008KT 12/M14 A3037 RMK A01 T01191138  RH  015%=      5-min Rain = 0
KPD3 011938Z 08010KT 12/M14 A3037 RMK A01 T01181138  RH  015%=      5-min Rain = 0
KPD3 011939Z 08006KT 12/M14 A3037 RMK A01 T01151141  RH  015%=      5-min Rain = 0
KPD3 011940Z 07007KT 11/M14 A3037 RMK A01 T01131136  RH  016%=      5-min Rain = 0
KPD3 011941Z 07006KT 11/M14 A3037 RMK A01 T01141139  RH  016%=      5-min Rain = 0
KPD3 011942Z 05013KT 12/M14 A3037 RMK A01 T01151141  RH  015%=      5-min Rain = 0
KPD3 011943Z 05014KT 12/M14 A3037 RMK A01 T01171141  RH  015%=      5-min Rain = 0
KPD3 011944Z 06010KT 12/M15 A3037 RMK A01 T01151146  RH  015%=      5-min Rain = 0
KPD3 011945Z 03014KT 12/M15 A3037 RMK A01 T01151145  RH  015%=      5-min Rain = 0
KPD3 011946Z 03010KT 12/M15 A3037 RMK A01 T01161151  RH  014%=      5-min Rain = 0
KPD3 011947Z 02012KT 11/M15 A3037 RMK A01 T01141149  RH  014%=      5-min Rain = 0
KPD3 011948Z 03011KT 12/M14 A3037 RMK A01 T01151143  RH  015%=      5-min Rain = 0
KPD3 011949Z 05008KT 12/M14 A3037 RMK A01 T01171143  RH  015%=      5-min Rain = 0
KPD3 011950Z 06008KT 12/M14 A3037 RMK A01 T01181143  RH  015%=      5-min Rain = 0
KPD3 011951Z 05008KT 12/M14 A3036 RMK A01 T01211142  RH  014%=      5-min Rain = 0
KPD3 011952Z 02007KT 12/M15 A3036 RMK A01 T01221146  RH  014%=      5-min Rain = 0
KPD3 011953Z 02008KT 12/M15 A3036 RMK A01 T01201149  RH  014%=      5-min Rain = 0
KPD3 011954Z 01005KT 12/M15 A3036 RMK A01 T01171151  RH  014%=      5-min Rain = 0
KPD3 011955Z 05003KT 12/M15 A3036 RMK A01 T01151150  RH  014%=      5-min Rain = 0
KPD3 011956Z 05004KT 12/M15 A3036 RMK A01 T01171147  RH  014%=      5-min Rain = 0
KPD3 011957Z 07008KT 12/M15 A3036 RMK A01 T01191146  RH  014%=      5-min Rain = 0
KPD3 011958Z 08008KT 12/M15 A3036 RMK A01 T01221154  RH  013%=      5-min Rain = 0
KPD3 011959Z 10004KT 12/M16 A3036 RMK A01 T01241159  RH  012%=      5-min Rain = 0
KPD3 012000Z 08006G11KT 12/M16 A3036 RMK A01 T01211159  RH  013%=      5-min Rain = 0
KPD3 012001Z 06008KT 12/M16 A3036 RMK A01 T01201158  RH  013%=      5-min Rain = 0
KPD3 012002Z 06004KT 12/M16 A3036 RMK A01 T01231155  RH  013%=      5-min Rain = 0
KPD3 012003Z 05011G16KT 13/M15 A3036 RMK A01 T01271148  RH  013%=      5-min Rain = 0
KPD3 012004Z 05007KT 12/M15 A3036 RMK A01 T01241153  RH  013%=      5-min Rain = 0
KPD3 012005Z 03005KT 12/M15 A3036 RMK A01 T01201152  RH  013%=      5-min Rain = 0
KPD3 012006Z 03006KT 12/M15 A3036 RMK A01 T01191154  RH  013%=      5-min Rain = 0
KPD3 012007Z 03007G15KT 12/M15 A3036 RMK A01 T01181152  RH  014%=      5-min Rain = 0
KPD3 012008Z 04012KT 12/M15 A3036 RMK A01 T01201148  RH  014%=      5-min Rain = 0
KPD3 012009Z 02007KT 12/M14 A3036 RMK A01 T01241144  RH  014%=      5-min Rain = 0
KPD3 012010Z 03008KT 13/M14 A3036 RMK A01 T01291141  RH  014%=      5-min Rain = 0
KPD3 012011Z 06011KT 13/M15 A3036 RMK A01 T01301148  RH  013%=      5-min Rain = 0
KPD3 012012Z 07010KT 13/M15 A3036 RMK A01 T01301150  RH  013%=      5-min Rain = 0
KPD3 012013Z 06011KT 13/M15 A3036 RMK A01 T01271152  RH  013%=      5-min Rain = 0
KPD3 012014Z 06008KT 12/M16 A3036 RMK A01 T01231155  RH  013%=      5-min Rain = 0
KPD3 012015Z 06006KT 12/M15 A3036 RMK A01 T01221152  RH  013%=      5-min Rain = 0
KPD3 012016Z 08005KT 12/M15 A3036 RMK A01 T01231154  RH  013%=      5-min Rain = 0
KPD3 012017Z 07006KT 12/M16 A3035 RMK A01 T01211157  RH  013%=      5-min Rain = 0
KPD3 012018Z 07010KT 12/M15 A3036 RMK A01 T01211154  RH  013%=      5-min Rain = 0
KPD3 012019Z 07005KT 12/M16 A3036 RMK A01 T01221156  RH  013%=      5-min Rain = 0
KPD3 012020Z 10007KT 12/M16 A3035 RMK A01 T01221157  RH  013%=      5-min Rain = 0
KPD3 012021Z 08008KT 12/M16 A3035 RMK A01 T01201156  RH  013%=      5-min Rain = 0
KPD3 012022Z 05011KT 12/M15 A3035 RMK A01 T01241149  RH  013%=      5-min Rain = 0
KPD3 012023Z 04010G15KT 13/M15 A3035 RMK A01 T01261151  RH  013%=      5-min Rain = 0
KPD3 012024Z 06010KT 13/M15 A3035 RMK A01 T01251151  RH  013%=      5-min Rain = 0
KPD3 012025Z 07010KT 12/M15 A3035 RMK A01 T01231153  RH  013%=      5-min Rain = 0
KPD3 012026Z 05007KT 12/M15 A3035 RMK A01 T01211154  RH  013%=      5-min Rain = 0
KPD3 012027Z 03012KT 12/M15 A3035 RMK A01 T01221151  RH  013%=      5-min Rain = 0
KPD3 012028Z 03008KT 13/M15 A3036 RMK A01 T01251153  RH  013%=      5-min Rain = 0
KPD3 012029Z 06006G12KT 12/M16 A3036 RMK A01 T01221159  RH  013%=      5-min Rain = 0
KPD3 012030Z 05010KT 12/M16 A3036 RMK A01 T01201158  RH  013%=      5-min Rain = 0
KPD3 012031Z 06010KT 12/M16 A3036 RMK A01 T01181159  RH  013%=      5-min Rain = 0
KPD3 012032Z 08006KT 12/M16 A3035 RMK A01 T01191155  RH  013%=      5-min Rain = 0
KPD3 012033Z 07006KT 12/M15 A3035 RMK A01 T01221153  RH  013%=      5-min Rain = 0
KPD3 012034Z 08004KT 12/M16 A3035 RMK A01 T01221158  RH  013%=      5-min Rain = 0
KPD3 012035Z 11005KT 12/M16 A3035 RMK A01 T01191158  RH  013%=      5-min Rain = 0
KPD3 012036Z 10004KT 12/M16 A3035 RMK A01 T01191155  RH  013%=      5-min Rain = 0
KPD3 012037Z 05003KT 12/M16 A3035 RMK A01 T01181158  RH  013%=      5-min Rain = 0
KPD3 012038Z 04005KT 12/M15 A3035 RMK A01 T01211152  RH  013%=      5-min Rain = 0
KPD3 012039Z 04005KT 12/M16 A3035 RMK A01 T01221155  RH  013%=      5-min Rain = 0
KPD3 012040Z 09005KT 12/M15 A3035 RMK A01 T01221154  RH  013%=      5-min Rain = 0
KPD3 012041Z 08005KT 12/M15 A3035 RMK A01 T01241149  RH  013%=      5-min Rain = 0
KPD3 012042Z 10006KT 13/M15 A3035 RMK A01 T01261153  RH  013%=      5-min Rain = 0
KPD3 012043Z 11004KT 12/M16 A3035 RMK A01 T01231159  RH  012%=      5-min Rain = 0
KPD3 012044Z 06003KT 12/M16 A3035 RMK A01 T01201161  RH  012%=      5-min Rain = 0
KPD3 012045Z 09007KT 12/M16 A3035 RMK A01 T01201159  RH  013%=      5-min Rain = 0
KPD3 012046Z 08007KT 12/M15 A3035 RMK A01 T01231153  RH  013%=      5-min Rain = 0
KPD3 012047Z 08010KT 13/M15 A3035 RMK A01 T01261148  RH  013%=      5-min Rain = 0
KPD3 012048Z 08010KT 13/M15 A3035 RMK A01 T01281147  RH  013%=      5-min Rain = 0
KPD3 012049Z 08011KT 13/M15 A3035 RMK A01 T01281146  RH  013%=      5-min Rain = 0
KPD3 012050Z 07010KT 13/M15 A3035 RMK A01 T01281148  RH  013%=      5-min Rain = 0
KPD3 012051Z 05012KT 13/M15 A3035 RMK A01 T01301146  RH  013%=      5-min Rain = 0
KPD3 012052Z 05012KT 13/M15 A3035 RMK A01 T01311147  RH  013%=      5-min Rain = 0
KPD3 012053Z 06012KT 13/M15 A3035 RMK A01 T01291149  RH  013%=      5-min Rain = 0
KPD3 012054Z 06010KT 13/M15 A3035 RMK A01 T01281150  RH  013%=      5-min Rain = 0
KPD3 012055Z 06009KT 13/M15 A3035 RMK A01 T01281148  RH  013%=      5-min Rain = 0
KPD3 012056Z 07010KT 13/M15 A3035 RMK A01 T01281149  RH  013%=      5-min Rain = 0
KPD3 012057Z 08009KT 13/M15 A3035 RMK A01 T01271151  RH  013%=      5-min Rain = 0
KPD3 012058Z 08007KT 13/M15 A3035 RMK A01 T01261150  RH  013%=      5-min Rain = 0
KPD3 012059Z 07010KT 13/M15 A3035 RMK A01 T01281148  RH  013%=      5-min Rain = 0
KPD3 012100Z 06008KT 13/M15 A3035 RMK A01 T01271149  RH  013%=      5-min Rain = 0
KPD3 012101Z 08008KT 13/M15 A3035 RMK A01 T01281148  RH  013%=      5-min Rain = 0
KPD3 012102Z 08009KT 13/M15 A3035 RMK A01 T01281146  RH  013%=      5-min Rain = 0
KPD3 012103Z 09006KT 13/M15 A3035 RMK A01 T01281147  RH  013%=      5-min Rain = 0
KPD3 012104Z 09008KT 13/M15 A3035 RMK A01 T01271148  RH  013%=      5-min Rain = 0
KPD3 012105Z 07010KT 13/M15 A3035 RMK A01 T01291145  RH  013%=      5-min Rain = 0
KPD3 012106Z 07009KT 13/M15 A3035 RMK A01 T01301148  RH  013%=      5-min Rain = 0
KPD3 012107Z 07007KT 13/M15 A3035 RMK A01 T01261153  RH  013%=      5-min Rain = 0
KPD3 012108Z 07005KT 13/M15 A3035 RMK A01 T01251150  RH  013%=      5-min Rain = 0
KPD3 012109Z 06004KT 13/M15 A3035 RMK A01 T01271147  RH  013%=      5-min Rain = 0
KPD3 012110Z 08005KT 13/M15 A3035 RMK A01 T01281149  RH  013%=      5-min Rain = 0
KPD3 012111Z 06003KT 13/M15 A3035 RMK A01 T01261153  RH  013%=      5-min Rain = 0
KPD3 012112Z 04003KT 12/M15 A3035 RMK A01 T01231152  RH  013%=      5-min Rain = 0
KPD3 012113Z 04004KT 12/M15 A3035 RMK A01 T01231153  RH  013%=      5-min Rain = 0
KPD3 012114Z 10006KT 12/M15 A3035 RMK A01 T01221151  RH  013%=      5-min Rain = 0
KPD3 012115Z 08007KT 12/M15 A3035 RMK A01 T01241148  RH  014%=      5-min Rain = 0
KPD3 012116Z 07008KT 13/M15 A3035 RMK A01 T01271148  RH  013%=      5-min Rain = 0
KPD3 012117Z 08007KT 13/M15 A3035 RMK A01 T01271151  RH  013%=      5-min Rain = 0
KPD3 012118Z 10009KT 13/M15 A3035 RMK A01 T01261149  RH  013%=      5-min Rain = 0
KPD3 012119Z 06008KT 13/M15 A3035 RMK A01 T01261150  RH  013%=      5-min Rain = 0
KPD3 012120Z 07009KT 13/M15 A3035 RMK A01 T01271150  RH  013%=      5-min Rain = 0
KPD3 012121Z 05007G12KT 13/M15 A3035 RMK A01 T01261153  RH  013%=      5-min Rain = 0
KPD3 012122Z 05009KT 13/M15 A3035 RMK A01 T01251152  RH  013%=      5-min Rain = 0
KPD3 012123Z 05006KT 12/M15 A3035 RMK A01 T01241154  RH  013%=      5-min Rain = 0
KPD3 012124Z 07004KT 12/M16 A3035 RMK A01 T01221155  RH  013%=      5-min Rain = 0
KPD3 012125Z 07003KT 12/M16 A3035 RMK A01 T01211155  RH  013%=      5-min Rain = 0
KPD3 012126Z 02003KT 12/M16 A3035 RMK A01 T01201157  RH  013%=      5-min Rain = 0
KPD3 012127Z 25002KT 12/M16 A3035 RMK A01 T01201156  RH  013%=      5-min Rain = 0
KPD3 012128Z 06002KT 12/M15 A3035 RMK A01 T01241147  RH  014%=      5-min Rain = 0
KPD3 012129Z 08002KT 13/M15 A3035 RMK A01 T01281150  RH  013%=      5-min Rain = 0
KPD3 012130Z 03003KT 13/M15 A3035 RMK A01 T01271154  RH  013%=      5-min Rain = 0
KPD3 012131Z 01003KT 13/M15 A3034 RMK A01 T01261152  RH  013%=      5-min Rain = 0
KPD3 012132Z 35001KT 13/M16 A3034 RMK A01 T01251156  RH  013%=      5-min Rain = 0
KPD3 012133Z 31002KT 12/M16 A3034 RMK A01 T01241156  RH  013%=      5-min Rain = 0
KPD3 012134Z 31003KT 12/M15 A3034 RMK A01 T01241153  RH  013%=      5-min Rain = 0
KPD3 012135Z 33005KT 12/M15 A3034 RMK A01 T01241154  RH  013%=      5-min Rain = 0
KPD3 012136Z 36007KT 13/M15 A3034 RMK A01 T01251147  RH  014%=      5-min Rain = 0
KPD3 012137Z 36007KT 13/M15 A3034 RMK A01 T01271147  RH  013%=      5-min Rain = 0
KPD3 012138Z 36005KT 13/M15 A3034 RMK A01 T01261148  RH  013%=      5-min Rain = 0
KPD3 012139Z 35005KT 13/M15 A3034 RMK A01 T01271146  RH  013%=      5-min Rain = 0
KPD3 012140Z 01005KT 13/M15 A3034 RMK A01 T01271147  RH  013%=      5-min Rain = 0
KPD3 012141Z 32005KT 13/M14 A3034 RMK A01 T01281144  RH  014%=      5-min Rain = 0
KPD3 012142Z 29003KT 13/M15 A3034 RMK A01 T01271147  RH  013%=      5-min Rain = 0
KPD3 012143Z 26002KT 13/M15 A3034 RMK A01 T01251150  RH  013%=      5-min Rain = 0
KPD3 012144Z 23004KT 13/M15 A3034 RMK A01 T01251145  RH  014%=      5-min Rain = 0
KPD3 012145Z 23004KT 13/M14 A3034 RMK A01 T01271144  RH  014%=      5-min Rain = 0
KPD3 012146Z 23005KT 13/M15 A3034 RMK A01 T01261145  RH  014%=      5-min Rain = 0
KPD3 012147Z 19002KT 13/M15 A3034 RMK A01 T01251148  RH  013%=      5-min Rain = 0
KPD3 012148Z 13003KT 12/M14 A3034 RMK A01 T01241142  RH  014%=      5-min Rain = 0
KPD3 012149Z 16002KT 12/M15 A3034 RMK A01 T01241145  RH  014%=      5-min Rain = 0
KPD3 012150Z 01006KT 13/M15 A3034 RMK A01 T01251145  RH  014%=      5-min Rain = 0
KPD3 012151Z 01008KT 13/M15 A3034 RMK A01 T01251146  RH  014%=      5-min Rain = 0
KPD3 012152Z 00008KT 12/M15 A3034 RMK A01 T01231147  RH  014%=      5-min Rain = 0
KPD3 012153Z 35005KT 12/M15 A3034 RMK A01 T01221149  RH  014%=      5-min Rain = 0
KPD3 012154Z 04002KT 12/M15 A3034 RMK A01 T01201151  RH  014%=      5-min Rain = 0
KPD3 012155Z 05005KT 12/M15 A3034 RMK A01 T01201150  RH  014%=      5-min Rain = 0
KPD3 012156Z 02006KT 12/M15 A3034 RMK A01 T01201149  RH  014%=      5-min Rain = 0
KPD3 012157Z 03005KT 12/M15 A3034 RMK A01 T01211147  RH  014%=      5-min Rain = 0
KPD3 012158Z 06007KT 12/M14 A3034 RMK A01 T01241144  RH  014%=      5-min Rain = 0
KPD3 012159Z 07008KT 12/M15 A3034 RMK A01 T01241146  RH  014%=      5-min Rain = 0
KPD3 012200Z 06009KT 13/M14 A3034 RMK A01 T01261144  RH  014%=      5-min Rain = 0
KPD3 012201Z 05008KT 13/M15 A3034 RMK A01 T01261146  RH  014%=      5-min Rain = 0
KPD3 012202Z 07004KT 13/M15 A3034 RMK A01 T01251147  RH  014%=      5-min Rain = 0
KPD3 012203Z 12002KT 12/M15 A3034 RMK A01 T01241146  RH  014%=      5-min Rain = 0
KPD3 012204Z 11003KT 12/M15 A3034 RMK A01 T01241148  RH  014%=      5-min Rain = 0
KPD3 012205Z 10004KT 12/M15 A3034 RMK A01 T01231149  RH  014%=      5-min Rain = 0
KPD3 012206Z 06004KT 12/M15 A3034 RMK A01 T01231146  RH  014%=      5-min Rain = 0
KPD3 012207Z 05005KT 12/M14 A3034 RMK A01 T01241143  RH  014%=      5-min Rain = 0
KPD3 012208Z 04006KT 13/M15 A3034 RMK A01 T01261146  RH  014%=      5-min Rain = 0
KPD3 012209Z 06005KT 13/M15 A3034 RMK A01 T01251146  RH  014%=      5-min Rain = 0
KPD3 012210Z 04005KT 12/M15 A3034 RMK A01 T01231148  RH  014%=      5-min Rain = 0
KPD3 012211Z 04006KT 12/M15 A3034 RMK A01 T01221149  RH  014%=      5-min Rain = 0
KPD3 012212Z 04006KT 12/M15 A3034 RMK A01 T01221149  RH  014%=      5-min Rain = 0
KPD3 012213Z 06005KT 12/M15 A3034 RMK A01 T01221148  RH  014%=      5-min Rain = 0
KPD3 012214Z 06004KT 12/M15 A3034 RMK A01 T01221148  RH  014%=      5-min Rain = 0
KPD3 012215Z 06005KT 12/M15 A3034 RMK A01 T01221148  RH  014%=      5-min Rain = 0
KPD3 012216Z 04005KT 12/M15 A3034 RMK A01 T01221149  RH  014%=      5-min Rain = 0
KPD3 012217Z 03004KT 12/M15 A3034 RMK A01 T01211149  RH  014%=      5-min Rain = 0
KPD3 012218Z 05003KT 12/M15 A3034 RMK A01 T01211147  RH  014%=      5-min Rain = 0
KPD3 012219Z 08005KT 12/M14 A3034 RMK A01 T01241142  RH  014%=      5-min Rain = 0
KPD3 012220Z 06005KT 13/M14 A3034 RMK A01 T01251144  RH  014%=      5-min Rain = 0
KPD3 012221Z 06005KT 12/M15 A3034 RMK A01 T01241146  RH  014%=      5-min Rain = 0
KPD3 012222Z 07005KT 13/M14 A3034 RMK A01 T01251143  RH  014%=      5-min Rain = 0
KPD3 012223Z 06007KT 13/M14 A3034 RMK A01 T01271142  RH  014%=      5-min Rain = 0
KPD3 012224Z 08005KT 13/M15 A3034 RMK A01 T01261146  RH  014%=      5-min Rain = 0
KPD3 012225Z 08006KT 12/M15 A3034 RMK A01 T01231149  RH  014%=      5-min Rain = 0
KPD3 012226Z 07004KT 12/M15 A3034 RMK A01 T01211149  RH  014%=      5-min Rain = 0
KPD3 012227Z 05005KT 12/M15 A3034 RMK A01 T01181149  RH  014%=      5-min Rain = 0
KPD3 012228Z 04005KT 12/M15 A3034 RMK A01 T01171149  RH  014%=      5-min Rain = 0
KPD3 012229Z 02004KT 12/M15 A3034 RMK A01 T01171147  RH  014%=      5-min Rain = 0
KPD3 012230Z 02002KT 12/M15 A3034 RMK A01 T01181147  RH  014%=      5-min Rain = 0
KPD3 012231Z 03001KT 12/M15 A3034 RMK A01 T01181147  RH  014%=      5-min Rain = 0
KPD3 012232Z 05003KT 12/M15 A3034 RMK A01 T01181147  RH  014%=      5-min Rain = 0
KPD3 012233Z 06005KT 12/M15 A3033 RMK A01 T01181146  RH  014%=      5-min Rain = 0
KPD3 012234Z 07005KT 12/M15 A3033 RMK A01 T01191145  RH  014%=      5-min Rain = 0
KPD3 012235Z 08002KT 12/M15 A3033 RMK A01 T01191148  RH  014%=      5-min Rain = 0
KPD3 012236Z 12000KT 12/M15 A3033 RMK A01 T01191148  RH  014%=      5-min Rain = 0
KPD3 012237Z 13002KT 12/M15 A3033 RMK A01 T01191149  RH  014%=      5-min Rain = 0
KPD3 012238Z 13002KT 12/M14 A3033 RMK A01 T01201144  RH  014%=      5-min Rain = 0
KPD3 012239Z 14004KT 12/M14 A3033 RMK A01 T01211140  RH  015%=      5-min Rain = 0
KPD3 012240Z 16003KT 12/M15 A3033 RMK A01 T01211146  RH  014%=      5-min Rain = 0
KPD3 012241Z 16002KT 12/M15 A3033 RMK A01 T01201150  RH  014%=      5-min Rain = 0
KPD3 012242Z 13002KT 12/M15 A3033 RMK A01 T01191148  RH  014%=      5-min Rain = 0
KPD3 012243Z 12005KT 12/M15 A3033 RMK A01 T01191145  RH  014%=      5-min Rain = 0
KPD3 012244Z 11004KT 12/M14 A3033 RMK A01 T01191144  RH  014%=      5-min Rain = 0
KPD3 012245Z 11002KT 12/M15 A3033 RMK A01 T01171148  RH  014%=      5-min Rain = 0
KPD3 012246Z 12001KT 12/M15 A3033 RMK A01 T01171147  RH  014%=      5-min Rain = 0
KPD3 012247Z 10001KT 12/M15 A3033 RMK A01 T01181145  RH  014%=      5-min Rain = 0
KPD3 012248Z 15001KT 12/M15 A3033 RMK A01 T01181147  RH  014%=      5-min Rain = 0
KPD3 012249Z 13002KT 12/M15 A3033 RMK A01 T01181147  RH  014%=      5-min Rain = 0
KPD3 012250Z 14005KT 12/M14 A3033 RMK A01 T01191144  RH  015%=      5-min Rain = 0
KPD3 012251Z 15005KT 12/M14 A3033 RMK A01 T01201141  RH  015%=      5-min Rain = 0
KPD3 012252Z 15003KT 12/M15 A3033 RMK A01 T01201147  RH  014%=      5-min Rain = 0
KPD3 012253Z 18003KT 12/M15 A3033 RMK A01 T01181146  RH  014%=      5-min Rain = 0
KPD3 012254Z 19001KT 12/M15 A3033 RMK A01 T01181145  RH  014%=      5-min Rain = 0
KPD3 012255Z 26002KT 12/M15 A3033 RMK A01 T01191146  RH  014%=      5-min Rain = 0
KPD3 012256Z 27002KT 12/M15 A3033 RMK A01 T01191148  RH  014%=      5-min Rain = 0
KPD3 012257Z 12003KT 12/M14 A3033 RMK A01 T01191144  RH  014%=      5-min Rain = 0
KPD3 012258Z 15003KT 12/M14 A3033 RMK A01 T01191142  RH  015%=      5-min Rain = 0
KPD3 012259Z 15004KT 12/M14 A3033 RMK A01 T01191139  RH  015%=      5-min Rain = 0
KPD3 012300Z 17002KT 12/M15 A3033 RMK A01 T01181146  RH  014%=      5-min Rain = 0
KPD3 012301Z 17002KT 12/M15 A3033 RMK A01 T01181145  RH  014%=      5-min Rain = 0
KPD3 012302Z 17003KT 12/M15 A3033 RMK A01 T01171145  RH  015%=      5-min Rain = 0
KPD3 012303Z 18002KT 12/M14 A3033 RMK A01 T01171143  RH  015%=      5-min Rain = 0
KPD3 012304Z 15003KT 12/M14 A3033 RMK A01 T01171141  RH  015%=      5-min Rain = 0
KPD3 012305Z 17004KT 12/M14 A3033 RMK A01 T01171143  RH  015%=      5-min Rain = 0
KPD3 012306Z 15004KT 12/M14 A3033 RMK A01 T01181143  RH  015%=      5-min Rain = 0
KPD3 012307Z 16005KT 12/M14 A3033 RMK A01 T01171143  RH  015%=      5-min Rain = 0
KPD3 012308Z 14006KT 12/M14 A3033 RMK A01 T01161142  RH  015%=      5-min Rain = 0
KPD3 012309Z 14006KT 12/M14 A3033 RMK A01 T01161143  RH  015%=      5-min Rain = 0
KPD3 012310Z 16004KT 12/M15 A3033 RMK A01 T01151145  RH  015%=      5-min Rain = 0
KPD3 012311Z 16005KT 12/M15 A3033 RMK A01 T01151146  RH  015%=      5-min Rain = 0
KPD3 012312Z 16005KT 12/M14 A3033 RMK A01 T01151143  RH  015%=      5-min Rain = 0
KPD3 012313Z 16004KT 12/M15 A3033 RMK A01 T01151146  RH  015%=      5-min Rain = 0
KPD3 012314Z 14005KT 12/M14 A3033 RMK A01 T01151143  RH  015%=      5-min Rain = 0
KPD3 012315Z 15004KT 12/M14 A3033 RMK A01 T01151141  RH  015%=      5-min Rain = 0
KPD3 012316Z 14003KT 12/M14 A3033 RMK A01 T01151144  RH  015%=      5-min Rain = 0
KPD3 012317Z 16003KT 12/M14 A3033 RMK A01 T01161141  RH  015%=      5-min Rain = 0
KPD3 012318Z 16003KT 12/M14 A3033 RMK A01 T01171144  RH  015%=      5-min Rain = 0
KPD3 012319Z 15003KT 12/M15 A3033 RMK A01 T01171146  RH  014%=      5-min Rain = 0
KPD3 012320Z 14003KT 12/M14 A3033 RMK A01 T01181144  RH  015%=      5-min Rain = 0
KPD3 012321Z 16003KT 12/M14 A3033 RMK A01 T01201139  RH  015%=      5-min Rain = 0
KPD3 012322Z 16003KT 12/M14 A3033 RMK A01 T01211141  RH  015%=      5-min Rain = 0
KPD3 012323Z 17003KT 12/M15 A3033 RMK A01 T01211145  RH  014%=      5-min Rain = 0
KPD3 012324Z 17003KT 12/M14 A3033 RMK A01 T01201143  RH  014%=      5-min Rain = 0
KPD3 012325Z 15003KT 12/M14 A3033 RMK A01 T01211138  RH  015%=      5-min Rain = 0
KPD3 012326Z 15002KT 12/M14 A3033 RMK A01 T01211143  RH  014%=      5-min Rain = 0
KPD3 012327Z 14001KT 12/M15 A3033 RMK A01 T01211148  RH  014%=      5-min Rain = 0
KPD3 012328Z 14000KT 12/M15 A3033 RMK A01 T01211149  RH  014%=      5-min Rain = 0
KPD3 012329Z 15002KT 12/M15 A3033 RMK A01 T01211147  RH  014%=      5-min Rain = 0
KPD3 012330Z 15004KT 12/M14 A3033 RMK A01 T01211143  RH  014%=      5-min Rain = 0
KPD3 012331Z 16003KT 12/M14 A3033 RMK A01 T01221141  RH  015%=      5-min Rain = 0
KPD3 012332Z 16004KT 12/M14 A3033 RMK A01 T01221144  RH  014%=      5-min Rain = 0
KPD3 012333Z 15005KT 12/M14 A3033 RMK A01 T01221143  RH  014%=      5-min Rain = 0
KPD3 012334Z 15004KT 12/M14 A3033 RMK A01 T01211140  RH  015%=      5-min Rain = 0
KPD3 012335Z 16004KT 12/M14 A3033 RMK A01 T01201140  RH  015%=      5-min Rain = 0
KPD3 012336Z 18002KT 12/M14 A3033 RMK A01 T01201143  RH  014%=      5-min Rain = 0
KPD3 012337Z 18003KT 12/M14 A3033 RMK A01 T01201144  RH  014%=      5-min Rain = 0
KPD3 012338Z 18003KT 12/M14 A3033 RMK A01 T01201144  RH  014%=      5-min Rain = 0
KPD3 012339Z 16006KT 12/M14 A3033 RMK A01 T01201141  RH  015%=      5-min Rain = 0
KPD3 012340Z 16005KT 12/M14 A3033 RMK A01 T01201142  RH  015%=      5-min Rain = 0
KPD3 012341Z 18004KT 12/M15 A3033 RMK A01 T01181146  RH  014%=      5-min Rain = 0
KPD3 012342Z 18006KT 12/M14 A3033 RMK A01 T01171143  RH  015%=      5-min Rain = 0
KPD3 012343Z 13005KT 12/M14 A3033 RMK A01 T01171140  RH  015%=      5-min Rain = 0
KPD3 012344Z 14004KT 12/M14 A3033 RMK A01 T01171141  RH  015%=      5-min Rain = 0
KPD3 012345Z 16004KT 12/M14 A3033 RMK A01 T01171141  RH  015%=      5-min Rain = 0
KPD3 012346Z 16004KT 12/M14 A3033 RMK A01 T01181138  RH  015%=      5-min Rain = 0
KPD3 012347Z 17005KT 12/M14 A3033 RMK A01 T01181138  RH  015%=      5-min Rain = 0
KPD3 012348Z 17005KT 12/M14 A3033 RMK A01 T01181140  RH  015%=      5-min Rain = 0
KPD3 012349Z 17006KT 12/M14 A3033 RMK A01 T01171141  RH  015%=      5-min Rain = 0
KPD3 012350Z 18005KT 12/M14 A3033 RMK A01 T01171141  RH  015%=      5-min Rain = 0
KPD3 012351Z 18005KT 12/M14 A3033 RMK A01 T01161140  RH  015%=      5-min Rain = 0
KPD3 012352Z 16004KT 12/M14 A3033 RMK A01 T01161142  RH  015%=      5-min Rain = 0
KPD3 012353Z 16005KT 12/M14 A3033 RMK A01 T01161138  RH  016%=      5-min Rain = 0
KPD3 012354Z 15005KT 12/M14 A3033 RMK A01 T01161142  RH  015%=      5-min Rain = 0
KPD3 012355Z 14004KT 12/M14 A3033 RMK A01 T01161144  RH  015%=      5-min Rain = 0
KPD3 012356Z 13003KT 12/M15 A3033 RMK A01 T01151147  RH  014%=      5-min Rain = 0
KPD3 012357Z 13004KT 12/M15 A3033 RMK A01 T01151145  RH  015%=      5-min Rain = 0
KPD3 012358Z 16003KT 11/M14 A3033 RMK A01 T01141139  RH  016%=      5-min Rain = 0
KPD3 012359Z 16003KT 11/M14 A3033 RMK A01 T01141140  RH  015%=      5-min Rain = 0
KPD3 020000Z 16003KT 11/M14 A3033 RMK A01 T01141142  RH  015%=      5-min Rain = 0
KPD3 020001Z 15003KT 11/M14 A3033 RMK A01 T01141141  RH  015%=      5-min Rain = 0
KPD3 020002Z 14003KT 11/M14 A3033 RMK A01 T01141140  RH  015%=      5-min Rain = 0
KPD3 020003Z 14002KT 12/M14 A3034 RMK A01 T01151139  RH  015%=      5-min Rain = 0
KPD3 020004Z 14002KT 12/M14 A3034 RMK A01 T01151139  RH  016%=      5-min Rain = 0
KPD3 020005Z 15002KT 11/M14 A3034 RMK A01 T01131137  RH  016%=      5-min Rain = 0
KPD3 020006Z 15003KT 11/M14 A3034 RMK A01 T01131138  RH  016%=      5-min Rain = 0
KPD3 020007Z 15003KT 11/M14 A3034 RMK A01 T01131137  RH  016%=      5-min Rain = 0
KPD3 020008Z 15003KT 11/M14 A3034 RMK A01 T01131136  RH  016%=      5-min Rain = 0
KPD3 020009Z 15003KT 11/M14 A3034 RMK A01 T01121137  RH  016%=      5-min Rain = 0
KPD3 020010Z 14002KT 11/M14 A3034 RMK A01 T01111142  RH  015%=      5-min Rain = 0
KPD3 020011Z 14002KT 11/M14 A3034 RMK A01 T01111143  RH  015%=      5-min Rain = 0
KPD3 020012Z 13004KT 11/M14 A3034 RMK A01 T01111141  RH  016%=      5-min Rain = 0
KPD3 020013Z 14003KT 11/M14 A3034 RMK A01 T01101140  RH  016%=      5-min Rain = 0
KPD3 020014Z 12003KT 11/M14 A3034 RMK A01 T01091141  RH  016%=      5-min Rain = 0
KPD3 020015Z 12004KT 11/M14 A3034 RMK A01 T01081141  RH  016%=      5-min Rain = 0
KPD3 020016Z 09003KT 11/M15 A3034 RMK A01 T01061146  RH  015%=      5-min Rain = 0
KPD3 020017Z 12002KT 11/M15 A3034 RMK A01 T01071150  RH  015%=      5-min Rain = 0
KPD3 020018Z 13003KT 11/M15 A3034 RMK A01 T01081146  RH  015%=      5-min Rain = 0
KPD3 020019Z 14002KT 11/M15 A3034 RMK A01 T01071147  RH  015%=      5-min Rain = 0
KPD3 020020Z 11001KT 11/M15 A3034 RMK A01 T01071151  RH  015%=      5-min Rain = 0
KPD3 020021Z 17002KT 11/M15 A3034 RMK A01 T01081150  RH  015%=      5-min Rain = 0
KPD3 020022Z 17002KT 11/M15 A3034 RMK A01 T01081145  RH  015%=      5-min Rain = 0
KPD3 020023Z 12003KT 11/M14 A3034 RMK A01 T01061142  RH  016%=      5-min Rain = 0
KPD3 020024Z 13003KT 10/M14 A3034 RMK A01 T01031144  RH  016%=      5-min Rain = 0
KPD3 020025Z 13003KT 10/M15 A3034 RMK A01 T01011146  RH  016%=      5-min Rain = 0
KPD3 020026Z 14003KT 10/M15 A3034 RMK A01 T00991145  RH  016%=      5-min Rain = 0
KPD3 020027Z 15002KT 10/M14 A3034 RMK A01 T00971144  RH  017%=      5-min Rain = 0
KPD3 020028Z 15003KT 10/M15 A3034 RMK A01 T00961145  RH  017%=      5-min Rain = 0
KPD3 020029Z 15003KT 10/M15 A3034 RMK A01 T00951145  RH  017%=      5-min Rain = 0
KPD3 020030Z 16003KT 10/M15 A3034 RMK A01 T00951146  RH  017%=      5-min Rain = 0
KPD3 020031Z 15003KT 09/M15 A3034 RMK A01 T00941146  RH  017%=      5-min Rain = 0
KPD3 020032Z 15002KT 09/M15 A3034 RMK A01 T00941147  RH  017%=      5-min Rain = 0
KPD3 020033Z 15002KT 09/M15 A3034 RMK A01 T00931147  RH  017%=      5-min Rain = 0
KPD3 020034Z 16002KT 09/M15 A3034 RMK A01 T00921147  RH  017%=      5-min Rain = 0
KPD3 020035Z 16003KT 09/M15 A3034 RMK A01 T00911147  RH  017%=      5-min Rain = 0
KPD3 020036Z 15003KT 09/M15 A3034 RMK A01 T00901146  RH  017%=      5-min Rain = 0
KPD3 020037Z 15004KT 09/M15 A3034 RMK A01 T00891147  RH  017%=      5-min Rain = 0
KPD3 020038Z 15003KT 09/M15 A3034 RMK A01 T00881147  RH  017%=      5-min Rain = 0
KPD3 020039Z 14003KT 09/M15 A3034 RMK A01 T00881146  RH  018%=      5-min Rain = 0
KPD3 020040Z 15004KT 09/M15 A3034 RMK A01 T00881145  RH  018%=      5-min Rain = 0
KPD3 020041Z 15004KT 09/M14 A3034 RMK A01 T00861144  RH  018%=      5-min Rain = 0
KPD3 020042Z 15005KT 08/M15 A3034 RMK A01 T00831145  RH  018%=      5-min Rain = 0
KPD3 020043Z 15005KT 08/M15 A3034 RMK A01 T00811145  RH  018%=      5-min Rain = 0
KPD3 020044Z 15006KT 08/M15 A3034 RMK A01 T00791145  RH  019%=      5-min Rain = 0
KPD3 020045Z 15006KT 08/M15 A3034 RMK A01 T00761145  RH  019%=      5-min Rain = 0
KPD3 020046Z 14005KT 07/M15 A3034 RMK A01 T00731145  RH  019%=      5-min Rain = 0
KPD3 020047Z 14006KT 07/M15 A3034 RMK A01 T00701145  RH  020%=      5-min Rain = 0
KPD3 020048Z 15006KT 07/M15 A3034 RMK A01 T00671145  RH  020%=      5-min Rain = 0
KPD3 020049Z 15006KT 06/M15 A3034 RMK A01 T00641145  RH  021%=      5-min Rain = 0
KPD3 020050Z 15006KT 06/M15 A3034 RMK A01 T00611145  RH  021%=      5-min Rain = 0
KPD3 020051Z 15005KT 06/M15 A3034 RMK A01 T00591145  RH  022%=      5-min Rain = 0
KPD3 020052Z 15005KT 06/M15 A3034 RMK A01 T00571145  RH  022%=      5-min Rain = 0
KPD3 020053Z 15005KT 06/M14 A3034 RMK A01 T00561144  RH  022%=      5-min Rain = 0
KPD3 020054Z 15006KT 06/M14 A3034 RMK A01 T00551144  RH  022%=      5-min Rain = 0
KPD3 020055Z 15006KT 06/M14 A3034 RMK A01 T00551144  RH  022%=      5-min Rain = 0
KPD3 020056Z 16006KT 06/M14 A3034 RMK A01 T00551144  RH  022%=      5-min Rain = 0
KPD3 020057Z 15005KT 06/M14 A3034 RMK A01 T00571144  RH  022%=      5-min Rain = 0
KPD3 020058Z 15005KT 06/M14 A3034 RMK A01 T00571144  RH  022%=      5-min Rain = 0
KPD3 020059Z 15006KT 06/M14 A3034 RMK A01 T00591144  RH  022%=      5-min Rain = 0
KPD3 020100Z 15006KT 06/M15 A3034 RMK A01 T00601145  RH  021%=      5-min Rain = 0
KPD3 020101Z 15006KT 06/M15 A3034 RMK A01 T00611145  RH  021%=      5-min Rain = 0
KPD3 020102Z 15006KT 06/M15 A3034 RMK A01 T00621146  RH  021%=      5-min Rain = 0
KPD3 020103Z 15006KT 06/M15 A3034 RMK A01 T00621146  RH  021%=      5-min Rain = 0
KPD3 020104Z 15006KT 06/M15 A3034 RMK A01 T00621146  RH  021%=      5-min Rain = 0
KPD3 020105Z 15007KT 06/M15 A3034 RMK A01 T00611147  RH  021%=      5-min Rain = 0
KPD3 020106Z 15008KT 06/M15 A3034 RMK A01 T00611146  RH  021%=      5-min Rain = 0
KPD3 020107Z 15008KT 06/M15 A3034 RMK A01 T00611146  RH  021%=      5-min Rain = 0
KPD3 020108Z 15009KT 06/M15 A3034 RMK A01 T00601146  RH  021%=      5-min Rain = 0
KPD3 020109Z 16009KT 06/M15 A3034 RMK A01 T00571146  RH  022%=      5-min Rain = 0
KPD3 020110Z 16008KT 05/M15 A3034 RMK A01 T00521145  RH  023%=      5-min Rain = 0
KPD3 020111Z 16008KT 05/M15 A3034 RMK A01 T00481145  RH  023%=      5-min Rain = 0
KPD3 020112Z 16008KT 04/M15 A3034 RMK A01 T00441146  RH  024%=      5-min Rain = 0
KPD3 020113Z 17008KT 04/M15 A3034 RMK A01 T00401146  RH  024%=      5-min Rain = 0
KPD3 020114Z 17008KT 04/M14 A3034 RMK A01 T00381144  RH  025%=      5-min Rain = 0
KPD3 020115Z 17008KT 04/M14 A3034 RMK A01 T00371142  RH  026%=      5-min Rain = 0
KPD3 020116Z 17007KT 04/M14 A3034 RMK A01 T00361140  RH  026%=      5-min Rain = 0
KPD3 020117Z 17007KT 04/M14 A3034 RMK A01 T00361141  RH  026%=      5-min Rain = 0
KPD3 020118Z 17007KT 04/M14 A3034 RMK A01 T00361141  RH  026%=      5-min Rain = 0
KPD3 020119Z 17007KT 04/M14 A3034 RMK A01 T00371141  RH  026%=      5-min Rain = 0
KPD3 020120Z 17007KT 04/M14 A3034 RMK A01 T00401140  RH  026%=      5-min Rain = 0
KPD3 020121Z 17007KT 04/M14 A3034 RMK A01 T00401141  RH  025%=      5-min Rain = 0
KPD3 020122Z 16007KT 04/M14 A3034 RMK A01 T00391141  RH  026%=      5-min Rain = 0
KPD3 020123Z 17007KT 04/M14 A3034 RMK A01 T00381140  RH  026%=      5-min Rain = 0
KPD3 020124Z 16007KT 04/M14 A3034 RMK A01 T00371140  RH  026%=      5-min Rain = 0
KPD3 020125Z 17007KT 04/M14 A3034 RMK A01 T00371139  RH  026%=      5-min Rain = 0
KPD3 020126Z 17007KT 04/M14 A3034 RMK A01 T00361139  RH  026%=      5-min Rain = 0
KPD3 020127Z 17007KT 04/M14 A3034 RMK A01 T00361139  RH  026%=      5-min Rain = 0
KPD3 020128Z 17008KT 04/M14 A3034 RMK A01 T00361139  RH  026%=      5-min Rain = 0
KPD3 020129Z 17008KT 04/M14 A3034 RMK A01 T00361139  RH  026%=      5-min Rain = 0
KPD3 020130Z 17007KT 04/M14 A3034 RMK A01 T00371140  RH  026%=      5-min Rain = 0
KPD3 020131Z 17006KT 04/M14 A3034 RMK A01 T00371140  RH  026%=      5-min Rain = 0
KPD3 020132Z 17007KT 04/M14 A3034 RMK A01 T00371141  RH  026%=      5-min Rain = 0
KPD3 020133Z 17007KT 04/M14 A3034 RMK A01 T00361141  RH  026%=      5-min Rain = 0
KPD3 020134Z 17007KT 03/M14 A3034 RMK A01 T00341141  RH  026%=      5-min Rain = 0
KPD3 020135Z 17006KT 03/M14 A3034 RMK A01 T00331142  RH  026%=      5-min Rain = 0
KPD3 020136Z 17006KT 03/M14 A3034 RMK A01 T00331143  RH  026%=      5-min Rain = 0
KPD3 020137Z 17006KT 03/M14 A3034 RMK A01 T00331144  RH  026%=      5-min Rain = 0
KPD3 020138Z 18006KT 03/M14 A3034 RMK A01 T00341143  RH  026%=      5-min Rain = 0
KPD3 020139Z 18006KT 03/M14 A3034 RMK A01 T00321142  RH  026%=      5-min Rain = 0
KPD3 020140Z 18006KT 03/M14 A3034 RMK A01 T00301141  RH  027%=      5-min Rain = 0
KPD3 020141Z 18005KT 03/M14 A3034 RMK A01 T00291141  RH  027%=      5-min Rain = 0
KPD3 020142Z 18005KT 03/M14 A3034 RMK A01 T00281140  RH  028%=      5-min Rain = 0
KPD3 020143Z 18005KT 03/M14 A3034 RMK A01 T00261140  RH  028%=      5-min Rain = 0
KPD3 020144Z 18005KT 03/M14 A3034 RMK A01 T00261140  RH  028%=      5-min Rain = 0
KPD3 020145Z 19005KT 03/M14 A3034 RMK A01 T00261139  RH  028%=      5-min Rain = 0
KPD3 020146Z 19005KT 03/M14 A3034 RMK A01 T00251138  RH  029%=      5-min Rain = 0
KPD3 020147Z 19005KT 02/M14 A3034 RMK A01 T00241138  RH  029%=      5-min Rain = 0
KPD3 020148Z 19005KT 02/M14 A3034 RMK A01 T00221137  RH  030%=      5-min Rain = 0
KPD3 020149Z 20005KT 02/M14 A3034 RMK A01 T00171135  RH  031%=      5-min Rain = 0
KPD3 020150Z 21005KT 01/M13 A3034 RMK A01 T00121133  RH  033%=      5-min Rain = 0
KPD3 020151Z 21005KT 01/M13 A3034 RMK A01 T00081130  RH  035%=      5-min Rain = 0
KPD3 020152Z 21005KT 01/M13 A3034 RMK A01 T00051129  RH  036%=      5-min Rain = 0
KPD3 020153Z 21005KT 01/M13 A3034 RMK A01 T00051128  RH  036%=      5-min Rain = 0
KPD3 020154Z 21005KT 01/M13 A3034 RMK A01 T00051127  RH  036%=      5-min Rain = 0
KPD3 020155Z 21005KT 00/M13 A3034 RMK A01 T00041126  RH  037%=      5-min Rain = 0
KPD3 020156Z 21005KT 00/M13 A3034 RMK A01 T00041126  RH  037%=      5-min Rain = 0
KPD3 020157Z 20005KT 00/M13 A3034 RMK A01 T00031126  RH  037%=      5-min Rain = 0
KPD3 020158Z 19005KT 00/M13 A3034 RMK A01 T00041127  RH  037%=      5-min Rain = 0
KPD3 020159Z 19005KT 01/M13 A3034 RMK A01 T00061129  RH  036%=      5-min Rain = 0
KPD3 020200Z 19006KT 01/M13 A3034 RMK A01 T00091131  RH  035%=      5-min Rain = 0
KPD3 020201Z 19005KT 01/M13 A3034 RMK A01 T00121132  RH  033%=      5-min Rain = 0
KPD3 020202Z 19005KT 01/M13 A3034 RMK A01 T00121133  RH  033%=      5-min Rain = 0
KPD3 020203Z 19005KT 01/M14 A3034 RMK A01 T00121135  RH  033%=      5-min Rain = 0
KPD3 020204Z 19005KT 01/M14 A3034 RMK A01 T00121135  RH  032%=      5-min Rain = 0
KPD3 020205Z 19005KT 01/M14 A3034 RMK A01 T00121135  RH  032%=      5-min Rain = 0
KPD3 020206Z 18005KT 01/M14 A3034 RMK A01 T00121136  RH  032%=      5-min Rain = 0
KPD3 020207Z 18005KT 01/M14 A3034 RMK A01 T00111136  RH  032%=      5-min Rain = 0
KPD3 020208Z 18005KT 01/M14 A3034 RMK A01 T00101136  RH  033%=      5-min Rain = 0
KPD3 020209Z 18005KT 01/M14 A3034 RMK A01 T00101137  RH  033%=      5-min Rain = 0
KPD3 020210Z 18005KT 01/M14 A3034 RMK A01 T00111136  RH  033%=      5-min Rain = 0
KPD3 020211Z 19004KT 01/M14 A3035 RMK A01 T00111135  RH  033%=      5-min Rain = 0
KPD3 020212Z 19005KT 01/M13 A3035 RMK A01 T00111134  RH  033%=      5-min Rain = 0
KPD3 020213Z 20004KT 01/M13 A3035 RMK A01 T00091132  RH  034%=      5-min Rain = 0
KPD3 020214Z 20005KT 00/M13 A3035 RMK A01 T00041129  RH  036%=      5-min Rain = 0
KPD3 020215Z 19005KT M00/M13 A3035 RMK A01 T10011126  RH  038%=      5-min Rain = 0
KPD3 020216Z 20005KT M00/M13 A3034 RMK A01 T10021125  RH  039%=      5-min Rain = 0
KPD3 020217Z 20005KT M00/M12 A3034 RMK A01 T10031124  RH  040%=      5-min Rain = 0
KPD3 020218Z 20005KT M00/M12 A3034 RMK A01 T10041122  RH  041%=      5-min Rain = 0
KPD3 020219Z 20005KT M01/M12 A3035 RMK A01 T10071121  RH  042%=      5-min Rain = 0
KPD3 020220Z 20005KT M01/M12 A3035 RMK A01 T10071121  RH  042%=      5-min Rain = 0
KPD3 020221Z 21005KT M01/M12 A3035 RMK A01 T10071120  RH  042%=      5-min Rain = 0
KPD3 020222Z 21005KT M01/M12 A3035 RMK A01 T10071121  RH  042%=      5-min Rain = 0
KPD3 020223Z 20005KT M01/M12 A3035 RMK A01 T10061122  RH  041%=      5-min Rain = 0
KPD3 020224Z 21004KT M01/M12 A3035 RMK A01 T10061122  RH  041%=      5-min Rain = 0
KPD3 020225Z 21004KT M01/M12 A3035 RMK A01 T10061122  RH  041%=      5-min Rain = 0
KPD3 020226Z 21004KT M01/M12 A3035 RMK A01 T10071123  RH  041%=      5-min Rain = 0
KPD3 020227Z 20004KT M01/M12 A3035 RMK A01 T10091123  RH  041%=      5-min Rain = 0
KPD3 020228Z 20004KT M01/M12 A3035 RMK A01 T10091124  RH  042%=      5-min Rain = 0
KPD3 020229Z 20004KT M01/M12 A3035 RMK A01 T10101124  RH  042%=      5-min Rain = 0
KPD3 020230Z 20004KT M01/M12 A3035 RMK A01 T10091124  RH  041%=      5-min Rain = 0
KPD3 020231Z 20005KT M01/M13 A3035 RMK A01 T10081125  RH  041%=      5-min Rain = 0
KPD3 020232Z 20005KT M01/M13 A3035 RMK A01 T10071125  RH  040%=      5-min Rain = 0
KPD3 020233Z 20005KT M01/M13 A3035 RMK A01 T10061126  RH  040%=      5-min Rain = 0
KPD3 020234Z 20005KT M01/M13 A3035 RMK A01 T10051126  RH  039%=      5-min Rain = 0
KPD3 020235Z 20005KT M00/M13 A3035 RMK A01 T10011126  RH  038%=      5-min Rain = 0
KPD3 020236Z 20005KT 00/13 A3035 RMK A01 T00000-126  RH  038%=      5-min Rain = 0
KPD3 020237Z 20005KT M00/M13 A3035 RMK A01 T10011126  RH  039%=      5-min Rain = 0
KPD3 020238Z 21005KT M00/M13 A3035 RMK A01 T10031125  RH  039%=      5-min Rain = 0
KPD3 020239Z 22005KT M01/M12 A3035 RMK A01 T10051124  RH  040%=      5-min Rain = 0
KPD3 020240Z 22005KT M01/M12 A3035 RMK A01 T10061123  RH  041%=      5-min Rain = 0
KPD3 020241Z 22005KT M01/M12 A3035 RMK A01 T10061122  RH  041%=      5-min Rain = 0
KPD3 020242Z 22006KT M01/M12 A3035 RMK A01 T10071123  RH  041%=      5-min Rain = 0
KPD3 020243Z 22006KT M01/M12 A3035 RMK A01 T10081123  RH  041%=      5-min Rain = 0
KPD3 020244Z 22006KT M01/M13 A3035 RMK A01 T10081125  RH  041%=      5-min Rain = 0
KPD3 020245Z 22006KT M01/M13 A3035 RMK A01 T10071126  RH  040%=      5-min Rain = 0
KPD3 020246Z 22006KT M01/M13 A3035 RMK A01 T10061126  RH  040%=      5-min Rain = 0
KPD3 020247Z 23006KT M01/M13 A3035 RMK A01 T10061126  RH  040%=      5-min Rain = 0
KPD3 020248Z 23006KT M01/M12 A3035 RMK A01 T10071124  RH  041%=      5-min Rain = 0
KPD3 020249Z 23006KT M01/M12 A3035 RMK A01 T10091124  RH  041%=      5-min Rain = 0
KPD3 020250Z 23005KT M01/M12 A3035 RMK A01 T10111124  RH  042%=      5-min Rain = 0
KPD3 020251Z 24005KT M01/M12 A3035 RMK A01 T10121123  RH  043%=      5-min Rain = 0
KPD3 020252Z 24005KT M01/M12 A3035 RMK A01 T10141123  RH  043%=      5-min Rain = 0
KPD3 020253Z 22004KT M02/M12 A3035 RMK A01 T10161122  RH  044%=      5-min Rain = 0
KPD3 020254Z 21004KT M02/M12 A3035 RMK A01 T10171122  RH  044%=      5-min Rain = 0
KPD3 020255Z 21004KT M02/M12 A3035 RMK A01 T10171122  RH  045%=      5-min Rain = 0
KPD3 020256Z 21004KT M02/M12 A3035 RMK A01 T10181122  RH  045%=      5-min Rain = 0
KPD3 020257Z 21004KT M02/M12 A3035 RMK A01 T10181122  RH  045%=      5-min Rain = 0
KPD3 020258Z 22003KT M02/M12 A3035 RMK A01 T10181121  RH  045%=      5-min Rain = 0
KPD3 020259Z 23003KT M02/M12 A3035 RMK A01 T10151121  RH  044%=      5-min Rain = 0
KPD3 020300Z 23003KT M01/M12 A3035 RMK A01 T10111120  RH  043%=      5-min Rain = 0
KPD3 020301Z 22003KT M01/M12 A3035 RMK A01 T10091120  RH  043%=      5-min Rain = 0
KPD3 020302Z 23003KT M01/M12 A3035 RMK A01 T10081120  RH  042%=      5-min Rain = 0
KPD3 020303Z 23003KT M01/M12 A3035 RMK A01 T10081120  RH  042%=      5-min Rain = 0
KPD3 020304Z 23003KT M01/M12 A3035 RMK A01 T10111121  RH  043%=      5-min Rain = 0
KPD3 020305Z 22003KT M01/M12 A3035 RMK A01 T10121121  RH  043%=      5-min Rain = 0
KPD3 020306Z 22003KT M01/M12 A3035 RMK A01 T10121121  RH  043%=      5-min Rain = 0
KPD3 020307Z 22003KT M01/M12 A3035 RMK A01 T10121121  RH  043%=      5-min Rain = 0
KPD3 020308Z 23003KT M01/M12 A3035 RMK A01 T10131121  RH  044%=      5-min Rain = 0
KPD3 020309Z 24003KT M01/M12 A3035 RMK A01 T10141121  RH  044%=      5-min Rain = 0
KPD3 020310Z 24003KT M02/M12 A3035 RMK A01 T10151122  RH  044%=      5-min Rain = 0
KPD3 020311Z 24003KT M01/M12 A3035 RMK A01 T10131122  RH  043%=      5-min Rain = 0
KPD3 020312Z 24003KT M01/M12 A3035 RMK A01 T10141121  RH  044%=      5-min Rain = 0
KPD3 020313Z 24003KT M02/M12 A3035 RMK A01 T10151121  RH  044%=      5-min Rain = 0
KPD3 020314Z 24003KT M02/M12 A3035 RMK A01 T10171121  RH  045%=      5-min Rain = 0
KPD3 020315Z 24003KT M02/M12 A3035 RMK A01 T10191121  RH  046%=      5-min Rain = 0
KPD3 020316Z 25004KT M02/M12 A3035 RMK A01 T10201121  RH  046%=      5-min Rain = 0
KPD3 020317Z 25004KT M02/M12 A3035 RMK A01 T10201122  RH  046%=      5-min Rain = 0
KPD3 020318Z 25004KT M02/M12 A3035 RMK A01 T10221122  RH  046%=      5-min Rain = 0
KPD3 020319Z 25004KT M02/M12 A3035 RMK A01 T10231123  RH  046%=      5-min Rain = 0
KPD3 020320Z 24004KT M02/M12 A3035 RMK A01 T10241124  RH  046%=      5-min Rain = 0
KPD3 020321Z 24004KT M02/M12 A3035 RMK A01 T10231124  RH  046%=      5-min Rain = 0
KPD3 020322Z 24004KT M02/M13 A3035 RMK A01 T10231125  RH  046%=      5-min Rain = 0
KPD3 020323Z 25004KT M02/M12 A3035 RMK A01 T10221124  RH  045%=      5-min Rain = 0
KPD3 020324Z 25004KT M02/M13 A3035 RMK A01 T10221126  RH  045%=      5-min Rain = 0
KPD3 020325Z 25004KT M02/M13 A3035 RMK A01 T10221125  RH  045%=      5-min Rain = 0
KPD3 020326Z 25004KT M02/M13 A3035 RMK A01 T10231126  RH  045%=      5-min Rain = 0
KPD3 020327Z 25004KT M02/M13 A3035 RMK A01 T10211128  RH  043%=      5-min Rain = 0
KPD3 020328Z 25004KT M02/M13 A3035 RMK A01 T10181130  RH  042%=      5-min Rain = 0
KPD3 020329Z 24004KT M02/M13 A3035 RMK A01 T10161130  RH  042%=      5-min Rain = 0
KPD3 020330Z 24004KT M02/M13 A3035 RMK A01 T10191130  RH  042%=      5-min Rain = 0
KPD3 020331Z 24004KT M02/M13 A3035 RMK A01 T10221128  RH  044%=      5-min Rain = 0
KPD3 020332Z 24004KT M02/M13 A3035 RMK A01 T10221130  RH  043%=      5-min Rain = 0
KPD3 020333Z 24004KT M01/M13 A3035 RMK A01 T10141131  RH  040%=      5-min Rain = 0
KPD3 020334Z 24004KT M01/M13 A3035 RMK A01 T10081132  RH  038%=      5-min Rain = 0
KPD3 020335Z 24004KT M00/M13 A3035 RMK A01 T10041134  RH  037%=      5-min Rain = 0
KPD3 020336Z 24004KT M00/M14 A3036 RMK A01 T10011135  RH  036%=      5-min Rain = 0
KPD3 020337Z 23004KT M00/M14 A3036 RMK A01 T10031135  RH  036%=      5-min Rain = 0
KPD3 020338Z 23004KT M01/M13 A3036 RMK A01 T10081134  RH  038%=      5-min Rain = 0
KPD3 020339Z 24004KT M01/M13 A3035 RMK A01 T10111133  RH  039%=      5-min Rain = 0
KPD3 020340Z 23004KT M01/M13 A3035 RMK A01 T10141133  RH  040%=      5-min Rain = 0
KPD3 020341Z 23003KT M02/M13 A3035 RMK A01 T10161132  RH  041%=      5-min Rain = 0
KPD3 020342Z 23003KT M02/M13 A3035 RMK A01 T10171132  RH  041%=      5-min Rain = 0
KPD3 020343Z 23003KT M02/M13 A3035 RMK A01 T10181131  RH  042%=      5-min Rain = 0
KPD3 020344Z 23003KT M02/M13 A3035 RMK A01 T10201130  RH  043%=      5-min Rain = 0
KPD3 020345Z 24003KT M02/M13 A3035 RMK A01 T10211129  RH  043%=      5-min Rain = 0
KPD3 020346Z 24003KT M02/M13 A3035 RMK A01 T10231129  RH  044%=      5-min Rain = 0
KPD3 020347Z 24004KT M03/M13 A3035 RMK A01 T10271128  RH  046%=      5-min Rain = 0
KPD3 020348Z 24004KT M03/M13 A3035 RMK A01 T10311125  RH  048%=      5-min Rain = 0
KPD3 020349Z 24004KT M03/M12 A3035 RMK A01 T10341124  RH  050%=      5-min Rain = 0
KPD3 020350Z 24004KT M03/M13 A3035 RMK A01 T10301126  RH  048%=      5-min Rain = 0
KPD3 020351Z 23004KT M02/M13 A3035 RMK A01 T10181128  RH  043%=      5-min Rain = 0
KPD3 020352Z 24003KT M02/M13 A3035 RMK A01 T10151128  RH  042%=      5-min Rain = 0
KPD3 020353Z 24003KT M02/M13 A3035 RMK A01 T10221128  RH  044%=      5-min Rain = 0
KPD3 020354Z 25003KT M03/M13 A3035 RMK A01 T10281126  RH  047%=      5-min Rain = 0
KPD3 020355Z 25003KT M03/M12 A3035 RMK A01 T10341124  RH  050%=      5-min Rain = 0
KPD3 020356Z 25003KT M04/M12 A3035 RMK A01 T10381123  RH  052%=      5-min Rain = 0
KPD3 020357Z 25004KT M04/M12 A3035 RMK A01 T10381123  RH  052%=      5-min Rain = 0
KPD3 020358Z 25004KT M04/M12 A3035 RMK A01 T10361123  RH  051%=      5-min Rain = 0
KPD3 020359Z 25004KT M04/M12 A3035 RMK A01 T10361122  RH  051%=      5-min Rain = 0
KPD3 020400Z 25004KT M04/M12 A3035 RMK A01 T10391122  RH  053%=      5-min Rain = 0
KPD3 020401Z 25004KT M04/M12 A3035 RMK A01 T10411121  RH  054%=      5-min Rain = 0
KPD3 020402Z 26004KT M04/M12 A3035 RMK A01 T10421121  RH  054%=      5-min Rain = 0
KPD3 020403Z 26004KT M04/M12 A3035 RMK A01 T10431121  RH  055%=      5-min Rain = 0
KPD3 020404Z 26004KT M04/M12 A3035 RMK A01 T10441120  RH  055%=      5-min Rain = 0
KPD3 020405Z 26004KT M04/M12 A3035 RMK A01 T10441120  RH  056%=      5-min Rain = 0
KPD3 020406Z 27005KT M05/M12 A3035 RMK A01 T10451120  RH  056%=      5-min Rain = 0
KPD3 020407Z 26005KT M05/M12 A3035 RMK A01 T10461120  RH  056%=      5-min Rain = 0
KPD3 020408Z 26005KT M05/M12 A3035 RMK A01 T10461122  RH  055%=      5-min Rain = 0
KPD3 020409Z 26005KT M04/M12 A3035 RMK A01 T10401123  RH  052%=      5-min Rain = 0
KPD3 020410Z 26005KT M04/M12 A3035 RMK A01 T10351123  RH  050%=      5-min Rain = 0
KPD3 020411Z 26006KT M03/M13 A3035 RMK A01 T10331126  RH  049%=      5-min Rain = 0
KPD3 020412Z 26006KT M03/M13 A3035 RMK A01 T10301127  RH  047%=      5-min Rain = 0
KPD3 020413Z 26006KT M03/M13 A3035 RMK A01 T10291127  RH  047%=      5-min Rain = 0
KPD3 020414Z 26006KT M03/M13 A3035 RMK A01 T10281127  RH  047%=      5-min Rain = 0
KPD3 020415Z 26006KT M03/M13 A3035 RMK A01 T10291126  RH  047%=      5-min Rain = 0
KPD3 020416Z 26006KT M03/M12 A3035 RMK A01 T10301124  RH  048%=      5-min Rain = 0
KPD3 020417Z 26007KT M03/M12 A3035 RMK A01 T10321123  RH  049%=      5-min Rain = 0
KPD3 020418Z 26007KT M03/M12 A3035 RMK A01 T10331122  RH  050%=      5-min Rain = 0
KPD3 020419Z 27007KT M03/M12 A3035 RMK A01 T10341122  RH  051%=      5-min Rain = 0
KPD3 020420Z 26007KT M04/M12 A3035 RMK A01 T10351122  RH  051%=      5-min Rain = 0
KPD3 020421Z 26007KT M04/M12 A3035 RMK A01 T10361122  RH  052%=      5-min Rain = 0
KPD3 020422Z 26007KT M04/M12 A3035 RMK A01 T10361122  RH  052%=      5-min Rain = 0
KPD3 020423Z 26007KT M03/M12 A3035 RMK A01 T10341121  RH  051%=      5-min Rain = 0
KPD3 020424Z 26008KT M03/M12 A3035 RMK A01 T10311121  RH  050%=      5-min Rain = 0
KPD3 020425Z 26008KT M03/M12 A3035 RMK A01 T10291120  RH  049%=      5-min Rain = 0
KPD3 020426Z 26008KT M03/M12 A3035 RMK A01 T10271120  RH  049%=      5-min Rain = 0
KPD3 020427Z 26008KT M03/M12 A3035 RMK A01 T10251119  RH  049%=      5-min Rain = 0
KPD3 020428Z 26009KT M02/M12 A3035 RMK A01 T10221117  RH  048%=      5-min Rain = 0
KPD3 020429Z 26009KT M02/M12 A3035 RMK A01 T10191115  RH  048%=      5-min Rain = 0
KPD3 020430Z 26009KT M02/M11 A3035 RMK A01 T10171114  RH  047%=      5-min Rain = 0
KPD3 020431Z 26008KT M01/M12 A3035 RMK A01 T10141115  RH  046%=      5-min Rain = 0
KPD3 020432Z 26008KT M01/M12 A3035 RMK A01 T10111115  RH  045%=      5-min Rain = 0
KPD3 020433Z 26007KT M01/M12 A3035 RMK A01 T10111115  RH  045%=      5-min Rain = 0
KPD3 020434Z 26007KT M01/M12 A3035 RMK A01 T10111116  RH  045%=      5-min Rain = 0
KPD3 020435Z 26007KT M01/M12 A3035 RMK A01 T10111116  RH  045%=      5-min Rain = 0
KPD3 020436Z 26007KT M01/M12 A3035 RMK A01 T10131117  RH  045%=      5-min Rain = 0
KPD3 020437Z 27007KT M02/M12 A3035 RMK A01 T10151117  RH  046%=      5-min Rain = 0
KPD3 020438Z 27007KT M02/M12 A3035 RMK A01 T10181117  RH  047%=      5-min Rain = 0
KPD3 020439Z 26007KT M02/M12 A3035 RMK A01 T10211117  RH  048%=      5-min Rain = 0
KPD3 020440Z 27007KT M02/M12 A3035 RMK A01 T10231116  RH  049%=      5-min Rain = 0
KPD3 020441Z 26007KT M03/M12 A3035 RMK A01 T10251115  RH  050%=      5-min Rain = 0
KPD3 020442Z 26008KT M03/M12 A3035 RMK A01 T10271115  RH  051%=      5-min Rain = 0
KPD3 020443Z 26008KT M03/M12 A3035 RMK A01 T10291115  RH  052%=      5-min Rain = 0
KPD3 020444Z 26008KT M03/M12 A3034 RMK A01 T10321115  RH  053%=      5-min Rain = 0
KPD3 020445Z 26008KT M03/M12 A3034 RMK A01 T10331115  RH  053%=      5-min Rain = 0
KPD3 020446Z 26008KT M03/M11 A3034 RMK A01 T10341114  RH  054%=      5-min Rain = 0
KPD3 020447Z 26008KT M04/M11 A3034 RMK A01 T10361114  RH  055%=      5-min Rain = 0
KPD3 020448Z 26009KT M04/M11 A3034 RMK A01 T10361114  RH  055%=      5-min Rain = 0
KPD3 020449Z 26009KT M04/M11 A3034 RMK A01 T10371113  RH  055%=      5-min Rain = 0
KPD3 020450Z 26009KT M04/M11 A3034 RMK A01 T10371113  RH  056%=      5-min Rain = 0
KPD3 020451Z 26009KT M04/M11 A3034 RMK A01 T10371113  RH  056%=      5-min Rain = 0
KPD3 020452Z 26009KT M04/M11 A3034 RMK A01 T10381113  RH  056%=      5-min Rain = 0
KPD3 020453Z 26009KT M04/M11 A3034 RMK A01 T10381112  RH  056%=      5-min Rain = 0
KPD3 020454Z 26009KT M04/M11 A3034 RMK A01 T10391113  RH  057%=      5-min Rain = 0
KPD3 020455Z 26009KT M04/M11 A3034 RMK A01 T10401113  RH  057%=      5-min Rain = 0
KPD3 020456Z 26009KT M04/M11 A3034 RMK A01 T10401112  RH  057%=      5-min Rain = 0
KPD3 020457Z 26009KT M04/M11 A3034 RMK A01 T10391111  RH  057%=      5-min Rain = 0
KPD3 020458Z 26009KT M04/M11 A3034 RMK A01 T10381111  RH  057%=      5-min Rain = 0
KPD3 020459Z 26008KT M04/M11 A3034 RMK A01 T10371111  RH  057%=      5-min Rain = 0
KPD3 020500Z 26009KT M04/M11 A3034 RMK A01 T10371111  RH  057%=      5-min Rain = 0
KPD3 020501Z 26008KT M04/M11 A3034 RMK A01 T10361111  RH  056%=      5-min Rain = 0
KPD3 020502Z 26009KT M04/M11 A3034 RMK A01 T10351111  RH  056%=      5-min Rain = 0
KPD3 020503Z 26009KT M03/M11 A3034 RMK A01 T10341111  RH  055%=      5-min Rain = 0
KPD3 020504Z 26009KT M03/M11 A3034 RMK A01 T10331111  RH  055%=      5-min Rain = 0
KPD3 020505Z 26009KT M03/M11 A3034 RMK A01 T10331111  RH  055%=      5-min Rain = 0
KPD3 020506Z 26009KT M03/M11 A3034 RMK A01 T10331111  RH  055%=      5-min Rain = 0
KPD3 020507Z 26009KT M03/M11 A3034 RMK A01 T10331111  RH  055%=      5-min Rain = 0
KPD3 020508Z 26009KT M03/M11 A3034 RMK A01 T10331111  RH  055%=      5-min Rain = 0
KPD3 020509Z 26009KT M03/M11 A3034 RMK A01 T10331112  RH  054%=      5-min Rain = 0
KPD3 020510Z 26009KT M03/M11 A3034 RMK A01 T10321113  RH  054%=      5-min Rain = 0
KPD3 020511Z 26009KT M03/M11 A3034 RMK A01 T10331113  RH  054%=      5-min Rain = 0
KPD3 020512Z 26009KT M03/M11 A3034 RMK A01 T10331112  RH  054%=      5-min Rain = 0
KPD3 020513Z 26010KT M03/M11 A3034 RMK A01 T10331112  RH  054%=      5-min Rain = 0
KPD3 020514Z 26010KT M03/M11 A3034 RMK A01 T10331112  RH  055%=      5-min Rain = 0
KPD3 020515Z 26009KT M03/M11 A3034 RMK A01 T10331112  RH  055%=      5-min Rain = 0
KPD3 020516Z 26009KT M03/M11 A3034 RMK A01 T10321112  RH  054%=      5-min Rain = 0
KPD3 020517Z 26009KT M03/M11 A3034 RMK A01 T10311113  RH  053%=      5-min Rain = 0
KPD3 020518Z 26009KT M03/M11 A3034 RMK A01 T10301113  RH  053%=      5-min Rain = 0
KPD3 020519Z 25009KT M03/M11 A3034 RMK A01 T10301114  RH  053%=      5-min Rain = 0
KPD3 020520Z 25009KT M03/M11 A3034 RMK A01 T10301114  RH  052%=      5-min Rain = 0
KPD3 020521Z 25010KT M03/M12 A3034 RMK A01 T10301116  RH  052%=      5-min Rain = 0
KPD3 020522Z 25010KT M03/M12 A3034 RMK A01 T10291116  RH  051%=      5-min Rain = 0
KPD3 020523Z 25010KT M03/M12 A3034 RMK A01 T10261115  RH  051%=      5-min Rain = 0
KPD3 020524Z 25009KT M02/M11 A3034 RMK A01 T10231114  RH  050%=      5-min Rain = 0
KPD3 020525Z 25009KT M02/M11 A3034 RMK A01 T10201114  RH  049%=      5-min Rain = 0
KPD3 020526Z 25009KT M02/M12 A3034 RMK A01 T10201115  RH  048%=      5-min Rain = 0
KPD3 020527Z 25009KT M02/M12 A3034 RMK A01 T10201115  RH  048%=      5-min Rain = 0
KPD3 020528Z 25009KT M02/M12 A3034 RMK A01 T10201115  RH  048%=      5-min Rain = 0
KPD3 020529Z 25009KT M02/M12 A3034 RMK A01 T10211116  RH  048%=      5-min Rain = 0
KPD3 020530Z 25009KT M02/M12 A3034 RMK A01 T10221116  RH  049%=      5-min Rain = 0
KPD3 020531Z 26009KT M02/M12 A3033 RMK A01 T10231116  RH  049%=      5-min Rain = 0
KPD3 020532Z 25009KT M02/M12 A3033 RMK A01 T10221115  RH  049%=      5-min Rain = 0
KPD3 020533Z 26009KT M02/M12 A3033 RMK A01 T10211115  RH  049%=      5-min Rain = 0
KPD3 020534Z 26009KT M02/M12 A3033 RMK A01 T10201115  RH  048%=      5-min Rain = 0
KPD3 020535Z 25009KT M02/M12 A3033 RMK A01 T10191115  RH  048%=      5-min Rain = 0
KPD3 020536Z 25009KT M02/M12 A3033 RMK A01 T10191116  RH  048%=      5-min Rain = 0
KPD3 020537Z 25009KT M02/M12 A3033 RMK A01 T10191115  RH  048%=      5-min Rain = 0
KPD3 020538Z 25009KT M02/M12 A3033 RMK A01 T10191116  RH  048%=      5-min Rain = 0
KPD3 020539Z 25009KT M02/M12 A3033 RMK A01 T10191116  RH  047%=      5-min Rain = 0
KPD3 020540Z 25009KT M02/M12 A3033 RMK A01 T10191117  RH  047%=      5-min Rain = 0
KPD3 020541Z 25010KT M02/M12 A3033 RMK A01 T10191117  RH  047%=      5-min Rain = 0
KPD3 020542Z 25010KT M02/M12 A3033 RMK A01 T10201118  RH  047%=      5-min Rain = 0
KPD3 020543Z 25010KT M02/M12 A3033 RMK A01 T10201118  RH  047%=      5-min Rain = 0
KPD3 020544Z 25010KT M02/M12 A3033 RMK A01 T10201118  RH  047%=      5-min Rain = 0
KPD3 020545Z 25011KT M02/M12 A3033 RMK A01 T10201118  RH  047%=      5-min Rain = 0
KPD3 020546Z 25011KT M02/M12 A3033 RMK A01 T10201118  RH  047%=      5-min Rain = 0
KPD3 020547Z 25010KT M02/M12 A3033 RMK A01 T10191118  RH  047%=      5-min Rain = 0
KPD3 020548Z 25010KT M02/M12 A3033 RMK A01 T10181118  RH  047%=      5-min Rain = 0
KPD3 020549Z 25011KT M02/M12 A3033 RMK A01 T10171118  RH  046%=      5-min Rain = 0
KPD3 020550Z 25010KT M02/M12 A3033 RMK A01 T10161117  RH  046%=      5-min Rain = 0
KPD3 020551Z 25010KT M02/M12 A3033 RMK A01 T10161117  RH  046%=      5-min Rain = 0
KPD3 020552Z 25010KT M02/M12 A3033 RMK A01 T10161118  RH  046%=      5-min Rain = 0
KPD3 020553Z 25011KT M02/M12 A3033 RMK A01 T10161118  RH  046%=      5-min Rain = 0
KPD3 020554Z 24011KT M02/M12 A3033 RMK A01 T10161118  RH  046%=      5-min Rain = 0
KPD3 020555Z 25011KT M02/M12 A3033 RMK A01 T10161118  RH  046%=      5-min Rain = 0
KPD3 020556Z 25011KT M02/M12 A3033 RMK A01 T10161118  RH  046%=      5-min Rain = 0
KPD3 020557Z 25010KT M01/M12 A3033 RMK A01 T10141118  RH  045%=      5-min Rain = 0
KPD3 020558Z 25010KT M01/M12 A3033 RMK A01 T10131118  RH  045%=      5-min Rain = 0
KPD3 020559Z 25011KT M01/M12 A3033 RMK A01 T10131118  RH  045%=      5-min Rain = 0

Page generated in 0.1243 seconds.